Observation data for Guadalupe Mtns Park on 03/13/2018      Previous  Date       Current Mesonet Observations  Soil Data  Daily Summary Page  Observations in Plain Language
KGU1 130501Z 03002KT 05/M09 A3025 RMK A01 T00541094  RH  034%=      5-min Rain = 0
KGU1 130502Z 03002KT 05/M09 A3025 RMK A01 T00541094  RH  034%=      5-min Rain = 0
KGU1 130503Z 04002KT 06/M10 A3025 RMK A01 T00551095  RH  034%=      5-min Rain = 0
KGU1 130504Z 04002KT 06/M10 A3025 RMK A01 T00551095  RH  034%=      5-min Rain = 0
KGU1 130505Z 04003KT 06/M10 A3025 RMK A01 T00551095  RH  034%=      5-min Rain = 0
KGU1 130506Z 05003KT 06/M10 A3025 RMK A01 T00551095  RH  034%=      5-min Rain = 0
KGU1 130507Z 05002KT 06/M10 A3025 RMK A01 T00551095  RH  033%=      5-min Rain = 0
KGU1 130508Z 05002KT 06/M10 A3025 RMK A01 T00551095  RH  033%=      5-min Rain = 0
KGU1 130509Z 05002KT 06/M10 A3025 RMK A01 T00551095  RH  033%=      5-min Rain = 0
KGU1 130510Z 04002KT 06/M10 A3025 RMK A01 T00561095  RH  033%=      5-min Rain = 0
KGU1 130511Z 04002KT 06/M10 A3025 RMK A01 T00561095  RH  033%=      5-min Rain = 0
KGU1 130512Z 03002KT 06/M10 A3025 RMK A01 T00561095  RH  033%=      5-min Rain = 0
KGU1 130513Z 03002KT 06/M10 A3025 RMK A01 T00551095  RH  033%=      5-min Rain = 0
KGU1 130514Z 03003KT 06/M10 A3025 RMK A01 T00551095  RH  033%=      5-min Rain = 0
KGU1 130515Z 03003KT 06/M10 A3025 RMK A01 T00551095  RH  033%=      5-min Rain = 0
KGU1 130516Z 03003KT 05/M10 A3025 RMK A01 T00541095  RH  034%=      5-min Rain = 0
KGU1 130517Z 03003KT 05/M10 A3024 RMK A01 T00541095  RH  034%=      5-min Rain = 0
KGU1 130518Z 04003KT 05/M10 A3024 RMK A01 T00541096  RH  033%=      5-min Rain = 0
KGU1 130519Z 04003KT 05/M10 A3025 RMK A01 T00541096  RH  033%=      5-min Rain = 0
KGU1 130520Z 03003KT 05/M10 A3025 RMK A01 T00541096  RH  033%=      5-min Rain = 0
KGU1 130521Z 04003KT 05/M10 A3025 RMK A01 T00541096  RH  034%=      5-min Rain = 0
KGU1 130522Z 04003KT 05/M10 A3025 RMK A01 T00541095  RH  034%=      5-min Rain = 0
KGU1 130523Z 03003KT 05/M10 A3025 RMK A01 T00541095  RH  034%=      5-min Rain = 0
KGU1 130524Z 04004KT 05/M10 A3025 RMK A01 T00531095  RH  034%=      5-min Rain = 0
KGU1 130525Z 04004KT 05/M10 A3025 RMK A01 T00531095  RH  034%=      5-min Rain = 0
KGU1 130526Z 04003KT 05/M10 A3025 RMK A01 T00531095  RH  034%=      5-min Rain = 0
KGU1 130527Z 03003KT 05/M10 A3025 RMK A01 T00521095  RH  034%=      5-min Rain = 0
KGU1 130528Z 03002KT 05/M10 A3025 RMK A01 T00521095  RH  034%=      5-min Rain = 0
KGU1 130529Z 02001KT 05/M10 A3025 RMK A01 T00521096  RH  034%=      5-min Rain = 0
KGU1 130530Z 02002KT 05/M10 A3025 RMK A01 T00521095  RH  034%=      5-min Rain = 0
KGU1 130531Z 01002KT 05/M10 A3025 RMK A01 T00521095  RH  034%=      5-min Rain = 0
KGU1 130532Z 01002KT 05/M10 A3025 RMK A01 T00521095  RH  034%=      5-min Rain = 0
KGU1 130533Z 01002KT 05/M10 A3025 RMK A01 T00511095  RH  034%=      5-min Rain = 0
KGU1 130534Z 01002KT 05/M10 A3025 RMK A01 T00511095  RH  035%=      5-min Rain = 0
KGU1 130535Z 01004KT 05/M09 A3025 RMK A01 T00501094  RH  035%=      5-min Rain = 0
KGU1 130536Z 01004KT 05/M10 A3025 RMK A01 T00511095  RH  035%=      5-min Rain = 0
KGU1 130537Z 00003KT 05/M10 A3025 RMK A01 T00511095  RH  034%=      5-min Rain = 0
KGU1 130538Z 00003KT 05/M10 A3025 RMK A01 T00521095  RH  034%=      5-min Rain = 0
KGU1 130539Z 00004KT 05/M10 A3025 RMK A01 T00521095  RH  034%=      5-min Rain = 0
KGU1 130540Z 00004KT 05/M10 A3025 RMK A01 T00531096  RH  034%=      5-min Rain = 0
KGU1 130541Z 01004KT 05/M10 A3025 RMK A01 T00531096  RH  034%=      5-min Rain = 0
KGU1 130542Z 01004KT 05/M10 A3025 RMK A01 T00531096  RH  034%=      5-min Rain = 0
KGU1 130543Z 01003KT 05/M10 A3025 RMK A01 T00531096  RH  034%=      5-min Rain = 0
KGU1 130544Z 01003KT 05/M10 A3025 RMK A01 T00531096  RH  034%=      5-min Rain = 0
KGU1 130545Z 02003KT 05/M10 A3025 RMK A01 T00541096  RH  034%=      5-min Rain = 0
KGU1 130546Z 02003KT 05/M10 A3025 RMK A01 T00541096  RH  034%=      5-min Rain = 0
KGU1 130547Z 02004KT 05/M10 A3025 RMK A01 T00541096  RH  034%=      5-min Rain = 0
KGU1 130548Z 02004KT 05/M10 A3025 RMK A01 T00541096  RH  033%=      5-min Rain = 0
KGU1 130549Z 02003KT 05/M10 A3025 RMK A01 T00541096  RH  033%=      5-min Rain = 0
KGU1 130550Z 02003KT 05/M10 A3025 RMK A01 T00541095  RH  034%=      5-min Rain = 0
KGU1 130551Z 02003KT 05/M10 A3025 RMK A01 T00541096  RH  034%=      5-min Rain = 0
KGU1 130552Z 02003KT 05/M10 A3024 RMK A01 T00531096  RH  034%=      5-min Rain = 0
KGU1 130553Z 02004KT 05/M10 A3024 RMK A01 T00531096  RH  034%=      5-min Rain = 0
KGU1 130554Z 02004KT 05/M10 A3024 RMK A01 T00531096  RH  034%=      5-min Rain = 0
KGU1 130555Z 03003KT 05/M10 A3024 RMK A01 T00531096  RH  034%=      5-min Rain = 0
KGU1 130556Z 03003KT 05/M10 A3024 RMK A01 T00521096  RH  034%=      5-min Rain = 0
KGU1 130557Z 04003KT 05/M10 A3024 RMK A01 T00521095  RH  034%=      5-min Rain = 0
KGU1 130558Z 04003KT 05/M10 A3024 RMK A01 T00521096  RH  034%=      5-min Rain = 0
KGU1 130559Z 03002KT 05/M10 A3024 RMK A01 T00521096  RH  034%=      5-min Rain = 0
KGU1 130600Z 03002KT 05/M10 A3024 RMK A01 T00521095  RH  034%=      5-min Rain = 0
KGU1 130601Z 03002KT 05/M10 A3024 RMK A01 T00521095  RH  034%=      5-min Rain = 0
KGU1 130602Z 03003KT 05/M10 A3024 RMK A01 T00521095  RH  034%=      5-min Rain = 0
KGU1 130603Z 02003KT 05/M10 A3024 RMK A01 T00511095  RH  034%=      5-min Rain = 0
KGU1 130604Z 02002KT 05/M10 A3024 RMK A01 T00511095  RH  034%=      5-min Rain = 0
KGU1 130605Z 03002KT 05/M10 A3024 RMK A01 T00511095  RH  034%=      5-min Rain = 0
KGU1 130606Z 07000KT 05/M10 A3024 RMK A01 T00511096  RH  034%=      5-min Rain = 0
KGU1 130607Z 06000KT 05/M10 A3024 RMK A01 T00511096  RH  034%=      5-min Rain = 0
KGU1 130608Z 06000KT 05/M10 A3024 RMK A01 T00521096  RH  034%=      5-min Rain = 0
KGU1 130609Z 06000KT 05/M10 A3024 RMK A01 T00521096  RH  034%=      5-min Rain = 0
KGU1 130610Z 06000KT 05/M10 A3024 RMK A01 T00521096  RH  034%=      5-min Rain = 0
KGU1 130611Z 00000KT 05/M10 A3024 RMK A01 T00521096  RH  034%=      5-min Rain = 0
KGU1 130612Z 00000KT 05/M10 A3024 RMK A01 T00521096  RH  034%=      5-min Rain = 0
KGU1 130613Z 00000KT 05/M10 A3024 RMK A01 T00531096  RH  034%=      5-min Rain = 0
KGU1 130614Z 06000KT 05/M10 A3024 RMK A01 T00531096  RH  034%=      5-min Rain = 0
KGU1 130615Z 06000KT 05/M10 A3024 RMK A01 T00521096  RH  034%=      5-min Rain = 0
KGU1 130616Z 06000KT 05/M10 A3024 RMK A01 T00521097  RH  034%=      5-min Rain = 0
KGU1 130617Z 05001KT 05/M10 A3024 RMK A01 T00521096  RH  034%=      5-min Rain = 0
KGU1 130618Z 05001KT 05/M10 A3024 RMK A01 T00511097  RH  034%=      5-min Rain = 0
KGU1 130619Z 05001KT 05/M10 A3024 RMK A01 T00501097  RH  034%=      5-min Rain = 0
KGU1 130620Z 05001KT 05/M10 A3024 RMK A01 T00491096  RH  035%=      5-min Rain = 0
KGU1 130621Z 05001KT 05/M10 A3024 RMK A01 T00491096  RH  035%=      5-min Rain = 0
KGU1 130622Z 05002KT 05/M10 A3024 RMK A01 T00481096  RH  035%=      5-min Rain = 0
KGU1 130623Z 05002KT 05/M10 A3024 RMK A01 T00481096  RH  035%=      5-min Rain = 0
KGU1 130624Z 05002KT 05/M10 A3024 RMK A01 T00471096  RH  035%=      5-min Rain = 0
KGU1 130625Z 05002KT 05/M10 A3024 RMK A01 T00471096  RH  035%=      5-min Rain = 0
KGU1 130626Z 05002KT 05/M10 A3024 RMK A01 T00481096  RH  035%=      5-min Rain = 0
KGU1 130627Z 05001KT 05/M10 A3024 RMK A01 T00481096  RH  035%=      5-min Rain = 0
KGU1 130628Z 04002KT 05/M10 A3023 RMK A01 T00481096  RH  035%=      5-min Rain = 0
KGU1 130629Z 04002KT 05/M10 A3023 RMK A01 T00481096  RH  035%=      5-min Rain = 0
KGU1 130630Z 03002KT 05/M10 A3023 RMK A01 T00481095  RH  035%=      5-min Rain = 0
KGU1 130631Z 03002KT 05/M10 A3023 RMK A01 T00481096  RH  035%=      5-min Rain = 0
KGU1 130632Z 04002KT 05/M10 A3023 RMK A01 T00481095  RH  035%=      5-min Rain = 0
KGU1 130633Z 04002KT 05/M10 A3023 RMK A01 T00481095  RH  035%=      5-min Rain = 0
KGU1 130634Z 05002KT 05/M10 A3023 RMK A01 T00481095  RH  035%=      5-min Rain = 0
KGU1 130635Z 05002KT 05/M10 A3023 RMK A01 T00481095  RH  035%=      5-min Rain = 0
KGU1 130636Z 04003KT 05/M10 A3023 RMK A01 T00471095  RH  035%=      5-min Rain = 0
KGU1 130637Z 03004KT 05/M10 A3023 RMK A01 T00471095  RH  035%=      5-min Rain = 0
KGU1 130638Z 03004KT 05/M10 A3023 RMK A01 T00471095  RH  035%=      5-min Rain = 0
KGU1 130639Z 02004KT 05/M10 A3023 RMK A01 T00471095  RH  035%=      5-min Rain = 0
KGU1 130640Z 02003KT 05/M10 A3023 RMK A01 T00481095  RH  035%=      5-min Rain = 0
KGU1 130641Z 01003KT 05/M10 A3023 RMK A01 T00481095  RH  035%=      5-min Rain = 0
KGU1 130642Z 02004KT 05/M10 A3023 RMK A01 T00481095  RH  035%=      5-min Rain = 0
KGU1 130643Z 02003KT 05/M10 A3023 RMK A01 T00481095  RH  035%=      5-min Rain = 0
KGU1 130644Z 02003KT 05/M10 A3023 RMK A01 T00471095  RH  035%=      5-min Rain = 0
KGU1 130645Z 02003KT 05/M10 A3023 RMK A01 T00471095  RH  035%=      5-min Rain = 0
KGU1 130646Z 02004KT 05/M10 A3023 RMK A01 T00471095  RH  035%=      5-min Rain = 0
KGU1 130647Z 02004KT 05/M10 A3023 RMK A01 T00481095  RH  035%=      5-min Rain = 0
KGU1 130648Z 01004KT 05/M10 A3023 RMK A01 T00471095  RH  035%=      5-min Rain = 0
KGU1 130649Z 01005KT 05/M09 A3023 RMK A01 T00471094  RH  035%=      5-min Rain = 0
KGU1 130650Z 01004KT 05/M09 A3023 RMK A01 T00471094  RH  035%=      5-min Rain = 0
KGU1 130651Z 00004KT 05/M09 A3023 RMK A01 T00471094  RH  035%=      5-min Rain = 0
KGU1 130652Z 01004KT 05/M10 A3023 RMK A01 T00471095  RH  035%=      5-min Rain = 0
KGU1 130653Z 01004KT 05/M10 A3023 RMK A01 T00471095  RH  035%=      5-min Rain = 0
KGU1 130654Z 02005KT 05/M10 A3023 RMK A01 T00471095  RH  035%=      5-min Rain = 0
KGU1 130655Z 02004KT 05/M10 A3023 RMK A01 T00471095  RH  035%=      5-min Rain = 0
KGU1 130656Z 02004KT 05/M10 A3023 RMK A01 T00471095  RH  035%=      5-min Rain = 0
KGU1 130657Z 02004KT 05/M10 A3023 RMK A01 T00471095  RH  035%=      5-min Rain = 0
KGU1 130658Z 02003KT 05/M10 A3023 RMK A01 T00471095  RH  035%=      5-min Rain = 0
KGU1 130659Z 04002KT 05/M10 A3023 RMK A01 T00471095  RH  035%=      5-min Rain = 0
KGU1 130700Z 04002KT 05/M10 A3023 RMK A01 T00461095  RH  035%=      5-min Rain = 0
KGU1 130701Z 03002KT 05/M10 A3023 RMK A01 T00461095  RH  036%=      5-min Rain = 0
KGU1 130702Z 04002KT 05/M10 A3023 RMK A01 T00461095  RH  036%=      5-min Rain = 0
KGU1 130703Z 04002KT 05/M10 A3023 RMK A01 T00451095  RH  036%=      5-min Rain = 0
KGU1 130704Z 04002KT 05/M10 A3023 RMK A01 T00451095  RH  036%=      5-min Rain = 0
KGU1 130705Z 05002KT 05/M10 A3023 RMK A01 T00461095  RH  036%=      5-min Rain = 0
KGU1 130706Z 05002KT 05/M10 A3023 RMK A01 T00461095  RH  036%=      5-min Rain = 0
KGU1 130707Z 05001KT 05/M10 A3023 RMK A01 T00461096  RH  035%=      5-min Rain = 0
KGU1 130708Z 05001KT 05/M10 A3023 RMK A01 T00461095  RH  036%=      5-min Rain = 0
KGU1 130709Z 04002KT 05/M10 A3023 RMK A01 T00461095  RH  036%=      5-min Rain = 0
KGU1 130710Z 04001KT 05/M10 A3023 RMK A01 T00461095  RH  036%=      5-min Rain = 0
KGU1 130711Z 04001KT 05/M10 A3023 RMK A01 T00451095  RH  036%=      5-min Rain = 0
KGU1 130712Z 04002KT 05/M10 A3023 RMK A01 T00451096  RH  036%=      5-min Rain = 0
KGU1 130713Z 04002KT 05/M10 A3023 RMK A01 T00451095  RH  036%=      5-min Rain = 0
KGU1 130714Z 03002KT 04/M10 A3023 RMK A01 T00441095  RH  036%=      5-min Rain = 0
KGU1 130715Z 03002KT 04/M10 A3023 RMK A01 T00441095  RH  036%=      5-min Rain = 0
KGU1 130716Z 02002KT 04/M10 A3023 RMK A01 T00441096  RH  036%=      5-min Rain = 0
KGU1 130717Z 02002KT 04/M10 A3023 RMK A01 T00431095  RH  036%=      5-min Rain = 0
KGU1 130718Z 02002KT 04/M10 A3023 RMK A01 T00431095  RH  036%=      5-min Rain = 0
KGU1 130719Z 02002KT 04/M10 A3023 RMK A01 T00431095  RH  036%=      5-min Rain = 0
KGU1 130720Z 02003KT 04/M10 A3023 RMK A01 T00431095  RH  036%=      5-min Rain = 0
KGU1 130721Z 03002KT 04/M10 A3023 RMK A01 T00431095  RH  036%=      5-min Rain = 0
KGU1 130722Z 03002KT 04/M10 A3023 RMK A01 T00431095  RH  036%=      5-min Rain = 0
KGU1 130723Z 02002KT 04/M10 A3023 RMK A01 T00431095  RH  036%=      5-min Rain = 0
KGU1 130724Z 02002KT 04/M10 A3023 RMK A01 T00431095  RH  036%=      5-min Rain = 0
KGU1 130725Z 01003KT 04/M10 A3023 RMK A01 T00431095  RH  036%=      5-min Rain = 0
KGU1 130726Z 02003KT 04/M10 A3023 RMK A01 T00431095  RH  036%=      5-min Rain = 0
KGU1 130727Z 01003KT 04/M10 A3023 RMK A01 T00421095  RH  037%=      5-min Rain = 0
KGU1 130728Z 02003KT 04/M10 A3023 RMK A01 T00421095  RH  037%=      5-min Rain = 0
KGU1 130729Z 02004KT 04/M10 A3023 RMK A01 T00411095  RH  037%=      5-min Rain = 0
KGU1 130730Z 01004KT 04/M10 A3023 RMK A01 T00411095  RH  037%=      5-min Rain = 0
KGU1 130731Z 01004KT 04/M10 A3023 RMK A01 T00411095  RH  037%=      5-min Rain = 0
KGU1 130732Z 01004KT 04/M10 A3023 RMK A01 T00401095  RH  037%=      5-min Rain = 0
KGU1 130733Z 01004KT 04/M09 A3022 RMK A01 T00391094  RH  037%=      5-min Rain = 0
KGU1 130734Z 01004KT 04/M09 A3022 RMK A01 T00391094  RH  038%=      5-min Rain = 0
KGU1 130735Z 02004KT 04/M09 A3022 RMK A01 T00391094  RH  038%=      5-min Rain = 0
KGU1 130736Z 02004KT 04/M09 A3022 RMK A01 T00391094  RH  038%=      5-min Rain = 0
KGU1 130737Z 02004KT 04/M09 A3022 RMK A01 T00401094  RH  037%=      5-min Rain = 0
KGU1 130738Z 02004KT 04/M09 A3022 RMK A01 T00401094  RH  037%=      5-min Rain = 0
KGU1 130739Z 02004KT 04/M10 A3022 RMK A01 T00401095  RH  037%=      5-min Rain = 0
KGU1 130740Z 02004KT 04/M10 A3022 RMK A01 T00391095  RH  037%=      5-min Rain = 0
KGU1 130741Z 01004KT 04/M09 A3022 RMK A01 T00401094  RH  037%=      5-min Rain = 0
KGU1 130742Z 01003KT 04/M09 A3022 RMK A01 T00401094  RH  037%=      5-min Rain = 0
KGU1 130743Z 01004KT 04/M09 A3022 RMK A01 T00401094  RH  037%=      5-min Rain = 0
KGU1 130744Z 01004KT 04/M09 A3022 RMK A01 T00401094  RH  037%=      5-min Rain = 0
KGU1 130745Z 01004KT 04/M10 A3022 RMK A01 T00401095  RH  037%=      5-min Rain = 0
KGU1 130746Z 00004KT 04/M10 A3022 RMK A01 T00401095  RH  037%=      5-min Rain = 0
KGU1 130747Z 01004KT 04/M10 A3022 RMK A01 T00411095  RH  037%=      5-min Rain = 0
KGU1 130748Z 01004KT 04/M10 A3022 RMK A01 T00401095  RH  037%=      5-min Rain = 0
KGU1 130749Z 01004KT 04/M10 A3022 RMK A01 T00401095  RH  037%=      5-min Rain = 0
KGU1 130750Z 01004KT 04/M10 A3022 RMK A01 T00401095  RH  037%=      5-min Rain = 0
KGU1 130751Z 01004KT 04/M09 A3022 RMK A01 T00401094  RH  037%=      5-min Rain = 0
KGU1 130752Z 01004KT 04/M09 A3022 RMK A01 T00391094  RH  037%=      5-min Rain = 0
KGU1 130753Z 01004KT 04/M09 A3022 RMK A01 T00401094  RH  037%=      5-min Rain = 0
KGU1 130754Z 01004KT 04/M09 A3022 RMK A01 T00391094  RH  037%=      5-min Rain = 0
KGU1 130755Z 01003KT 04/M09 A3022 RMK A01 T00391094  RH  038%=      5-min Rain = 0
KGU1 130756Z 01003KT 04/M09 A3022 RMK A01 T00391094  RH  038%=      5-min Rain = 0
KGU1 130757Z 01004KT 04/M09 A3022 RMK A01 T00391094  RH  038%=      5-min Rain = 0
KGU1 130758Z 01004KT 04/M09 A3022 RMK A01 T00391094  RH  038%=      5-min Rain = 0
KGU1 130759Z 00004KT 04/M09 A3022 RMK A01 T00391094  RH  038%=      5-min Rain = 0
KGU1 130800Z 01004KT 04/M09 A3022 RMK A01 T00391094  RH  038%=      5-min Rain = 0
KGU1 130801Z 01003KT 04/M09 A3022 RMK A01 T00381094  RH  038%=      5-min Rain = 0
KGU1 130802Z 01003KT 04/M09 A3022 RMK A01 T00381094  RH  038%=      5-min Rain = 0
KGU1 130803Z 02003KT 04/M09 A3022 RMK A01 T00381094  RH  038%=      5-min Rain = 0
KGU1 130804Z 01003KT 04/M09 A3022 RMK A01 T00381094  RH  038%=      5-min Rain = 0
KGU1 130805Z 01003KT 04/M09 A3022 RMK A01 T00381094  RH  038%=      5-min Rain = 0
KGU1 130806Z 01003KT 04/M09 A3022 RMK A01 T00371094  RH  038%=      5-min Rain = 0
KGU1 130807Z 00003KT 04/M09 A3022 RMK A01 T00361094  RH  038%=      5-min Rain = 0
KGU1 130808Z 36003KT 04/M09 A3022 RMK A01 T00361094  RH  039%=      5-min Rain = 0
KGU1 130809Z 36003KT 04/M09 A3022 RMK A01 T00351094  RH  039%=      5-min Rain = 0
KGU1 130810Z 36003KT 04/M09 A3021 RMK A01 T00351094  RH  039%=      5-min Rain = 0
KGU1 130811Z 36003KT 04/M09 A3021 RMK A01 T00351094  RH  039%=      5-min Rain = 0
KGU1 130812Z 36003KT 04/M09 A3021 RMK A01 T00351094  RH  039%=      5-min Rain = 0
KGU1 130813Z 36003KT 04/M09 A3021 RMK A01 T00351094  RH  039%=      5-min Rain = 0
KGU1 130814Z 00003KT 03/M09 A3021 RMK A01 T00341094  RH  039%=      5-min Rain = 0
KGU1 130815Z 01003KT 03/M09 A3021 RMK A01 T00341094  RH  039%=      5-min Rain = 0
KGU1 130816Z 01003KT 03/M09 A3021 RMK A01 T00331094  RH  039%=      5-min Rain = 0
KGU1 130817Z 01003KT 03/M09 A3021 RMK A01 T00341094  RH  039%=      5-min Rain = 0
KGU1 130818Z 01003KT 03/M09 A3021 RMK A01 T00341094  RH  039%=      5-min Rain = 0
KGU1 130819Z 02003KT 04/M09 A3021 RMK A01 T00351094  RH  039%=      5-min Rain = 0
KGU1 130820Z 02003KT 04/M09 A3021 RMK A01 T00361094  RH  039%=      5-min Rain = 0
KGU1 130821Z 01002KT 04/M10 A3021 RMK A01 T00361095  RH  038%=      5-min Rain = 0
KGU1 130822Z 01003KT 04/M10 A3021 RMK A01 T00371095  RH  038%=      5-min Rain = 0
KGU1 130823Z 00003KT 04/M10 A3021 RMK A01 T00371095  RH  038%=      5-min Rain = 0
KGU1 130824Z 00003KT 04/M10 A3021 RMK A01 T00361095  RH  038%=      5-min Rain = 0
KGU1 130825Z 00003KT 03/M10 A3021 RMK A01 T00341095  RH  039%=      5-min Rain = 0
KGU1 130826Z 00003KT 03/M10 A3021 RMK A01 T00341095  RH  039%=      5-min Rain = 0
KGU1 130827Z 01003KT 03/M09 A3021 RMK A01 T00341094  RH  039%=      5-min Rain = 0
KGU1 130828Z 01003KT 03/M10 A3021 RMK A01 T00341095  RH  039%=      5-min Rain = 0
KGU1 130829Z 01003KT 03/M10 A3021 RMK A01 T00341095  RH  039%=      5-min Rain = 0
KGU1 130830Z 02003KT 03/M10 A3021 RMK A01 T00341095  RH  039%=      5-min Rain = 0
KGU1 130831Z 02003KT 03/M09 A3021 RMK A01 T00341094  RH  039%=      5-min Rain = 0
KGU1 130832Z 02002KT 04/M10 A3021 RMK A01 T00351095  RH  039%=      5-min Rain = 0
KGU1 130833Z 02002KT 04/M10 A3021 RMK A01 T00351095  RH  038%=      5-min Rain = 0
KGU1 130834Z 01002KT 04/M10 A3021 RMK A01 T00351095  RH  039%=      5-min Rain = 0
KGU1 130835Z 01002KT 03/M10 A3021 RMK A01 T00341095  RH  039%=      5-min Rain = 0
KGU1 130836Z 00002KT 03/M10 A3021 RMK A01 T00341095  RH  039%=      5-min Rain = 0
KGU1 130837Z 36002KT 03/M10 A3021 RMK A01 T00331095  RH  039%=      5-min Rain = 0
KGU1 130838Z 36002KT 03/M10 A3021 RMK A01 T00331095  RH  039%=      5-min Rain = 0
KGU1 130839Z 36002KT 03/M10 A3021 RMK A01 T00331095  RH  039%=      5-min Rain = 0
KGU1 130840Z 36003KT 03/M09 A3021 RMK A01 T00321094  RH  039%=      5-min Rain = 0
KGU1 130841Z 36002KT 03/M09 A302 RMK A01 T00311094  RH  040%=      5-min Rain = 0
KGU1 130842Z 35002KT 03/M10 A302 RMK A01 T00311095  RH  040%=      5-min Rain = 0
KGU1 130843Z 35002KT 03/M10 A302 RMK A01 T00301095  RH  040%=      5-min Rain = 0
KGU1 130844Z 35002KT 03/M09 A302 RMK A01 T00301094  RH  040%=      5-min Rain = 0
KGU1 130845Z 35002KT 03/M09 A302 RMK A01 T00291094  RH  041%=      5-min Rain = 0
KGU1 130846Z 34002KT 03/M09 A302 RMK A01 T00281093  RH  041%=      5-min Rain = 0
KGU1 130847Z 34002KT 03/M09 A302 RMK A01 T00271092  RH  042%=      5-min Rain = 0
KGU1 130848Z 33003KT 03/M09 A302 RMK A01 T00271091  RH  042%=      5-min Rain = 0
KGU1 130849Z 34002KT 03/M09 A302 RMK A01 T00271090  RH  042%=      5-min Rain = 0
KGU1 130850Z 34002KT 03/M09 A302 RMK A01 T00261090  RH  043%=      5-min Rain = 0
KGU1 130851Z 33002KT 03/M09 A302 RMK A01 T00261089  RH  043%=      5-min Rain = 0
KGU1 130852Z 33002KT 03/M09 A302 RMK A01 T00251089  RH  043%=      5-min Rain = 0
KGU1 130853Z 34002KT 03/M09 A302 RMK A01 T00251088  RH  043%=      5-min Rain = 0
KGU1 130854Z 33002KT 03/M09 A302 RMK A01 T00251088  RH  043%=      5-min Rain = 0
KGU1 130855Z 33002KT 03/M09 A302 RMK A01 T00251088  RH  043%=      5-min Rain = 0
KGU1 130856Z 33002KT 03/M09 A302 RMK A01 T00261088  RH  043%=      5-min Rain = 0
KGU1 130857Z 33002KT 03/M09 A302 RMK A01 T00261088  RH  043%=      5-min Rain = 0
KGU1 130858Z 33002KT 03/M09 A302 RMK A01 T00251088  RH  044%=      5-min Rain = 0
KGU1 130859Z 33002KT 03/M09 A302 RMK A01 T00251088  RH  044%=      5-min Rain = 0
KGU1 130900Z 33002KT 03/M09 A302 RMK A01 T00261088  RH  044%=      5-min Rain = 0
KGU1 130901Z 33002KT 03/M09 A302 RMK A01 T00251088  RH  044%=      5-min Rain = 0
KGU1 130902Z 33002KT 02/M09 A302 RMK A01 T00241088  RH  044%=      5-min Rain = 0
KGU1 130903Z 33002KT 02/M09 A302 RMK A01 T00241088  RH  044%=      5-min Rain = 0
KGU1 130904Z 33002KT 02/M09 A302 RMK A01 T00231087  RH  045%=      5-min Rain = 0
KGU1 130905Z 33002KT 02/M09 A302 RMK A01 T00221087  RH  045%=      5-min Rain = 0
KGU1 130906Z 34002KT 02/M09 A302 RMK A01 T00221087  RH  045%=      5-min Rain = 0
KGU1 130907Z 34002KT 02/M09 A302 RMK A01 T00231088  RH  044%=      5-min Rain = 0
KGU1 130908Z 35002KT 02/M09 A302 RMK A01 T00231088  RH  044%=      5-min Rain = 0
KGU1 130909Z 35002KT 02/M09 A302 RMK A01 T00241089  RH  044%=      5-min Rain = 0
KGU1 130910Z 35003KT 02/M09 A302 RMK A01 T00241089  RH  043%=      5-min Rain = 0
KGU1 130911Z 34003KT 02/M09 A302 RMK A01 T00241089  RH  043%=      5-min Rain = 0
KGU1 130912Z 34003KT 02/M09 A302 RMK A01 T00231089  RH  044%=      5-min Rain = 0
KGU1 130913Z 33003KT 02/M09 A302 RMK A01 T00221089  RH  044%=      5-min Rain = 0
KGU1 130914Z 34003KT 02/M09 A302 RMK A01 T00221090  RH  044%=      5-min Rain = 0
KGU1 130915Z 34003KT 02/M09 A302 RMK A01 T00211089  RH  044%=      5-min Rain = 0
KGU1 130916Z 35003KT 02/M09 A302 RMK A01 T00211089  RH  044%=      5-min Rain = 0
KGU1 130917Z 36003KT 02/M09 A302 RMK A01 T00221090  RH  044%=      5-min Rain = 0
KGU1 130918Z 35003KT 02/M09 A302 RMK A01 T00231091  RH  043%=      5-min Rain = 0
KGU1 130919Z 36003KT 02/M09 A302 RMK A01 T00231092  RH  043%=      5-min Rain = 0
KGU1 130920Z 35003KT 02/M09 A302 RMK A01 T00231092  RH  043%=      5-min Rain = 0
KGU1 130921Z 36002KT 02/M09 A302 RMK A01 T00231092  RH  043%=      5-min Rain = 0
KGU1 130922Z 00002KT 02/M09 A302 RMK A01 T00241092  RH  043%=      5-min Rain = 0
KGU1 130923Z 35002KT 03/M09 A302 RMK A01 T00251092  RH  042%=      5-min Rain = 0
KGU1 130924Z 35003KT 03/M09 A302 RMK A01 T00271093  RH  041%=      5-min Rain = 0
KGU1 130925Z 35003KT 03/M09 A302 RMK A01 T00291093  RH  041%=      5-min Rain = 0
KGU1 130926Z 34003KT 03/M09 A302 RMK A01 T00291094  RH  041%=      5-min Rain = 0
KGU1 130927Z 35002KT 03/M09 A302 RMK A01 T00281093  RH  041%=      5-min Rain = 0
KGU1 130928Z 33003KT 03/M09 A302 RMK A01 T00281093  RH  041%=      5-min Rain = 0
KGU1 130929Z 33003KT 03/M09 A302 RMK A01 T00281092  RH  042%=      5-min Rain = 0
KGU1 130930Z 33003KT 03/M09 A302 RMK A01 T00271090  RH  042%=      5-min Rain = 0
KGU1 130931Z 32003KT 03/M09 A302 RMK A01 T00251089  RH  043%=      5-min Rain = 0
KGU1 130932Z 33003KT 03/M09 A3019 RMK A01 T00251087  RH  044%=      5-min Rain = 0
KGU1 130933Z 33002KT 03/M09 A3019 RMK A01 T00251087  RH  044%=      5-min Rain = 0
KGU1 130934Z 32002KT 02/M09 A3019 RMK A01 T00241087  RH  044%=      5-min Rain = 0
KGU1 130935Z 32002KT 03/M09 A3019 RMK A01 T00261088  RH  043%=      5-min Rain = 0
KGU1 130936Z 33002KT 03/M09 A3019 RMK A01 T00261088  RH  043%=      5-min Rain = 0
KGU1 130937Z 33002KT 03/M09 A3019 RMK A01 T00271088  RH  043%=      5-min Rain = 0
KGU1 130938Z 33002KT 03/M09 A3019 RMK A01 T00261088  RH  043%=      5-min Rain = 0
KGU1 130939Z 33003KT 03/M09 A3019 RMK A01 T00251088  RH  043%=      5-min Rain = 0
KGU1 130940Z 33003KT 03/M09 A3019 RMK A01 T00251088  RH  044%=      5-min Rain = 0
KGU1 130941Z 33002KT 03/M09 A3019 RMK A01 T00251088  RH  044%=      5-min Rain = 0
KGU1 130942Z 33002KT 03/M09 A3019 RMK A01 T00251088  RH  044%=      5-min Rain = 0
KGU1 130943Z 33002KT 02/M09 A3019 RMK A01 T00231087  RH  044%=      5-min Rain = 0
KGU1 130944Z 33002KT 02/M09 A3019 RMK A01 T00221086  RH  045%=      5-min Rain = 0
KGU1 130945Z 32002KT 02/M09 A3019 RMK A01 T00211086  RH  046%=      5-min Rain = 0
KGU1 130946Z 32002KT 02/M09 A3019 RMK A01 T00201086  RH  046%=      5-min Rain = 0
KGU1 130947Z 33003KT 02/M09 A3019 RMK A01 T00201087  RH  046%=      5-min Rain = 0
KGU1 130948Z 34003KT 02/M09 A3019 RMK A01 T00201087  RH  046%=      5-min Rain = 0
KGU1 130949Z 34003KT 02/M09 A3019 RMK A01 T00201088  RH  045%=      5-min Rain = 0
KGU1 130950Z 33003KT 02/M09 A3019 RMK A01 T00201088  RH  045%=      5-min Rain = 0
KGU1 130951Z 33003KT 02/M09 A3019 RMK A01 T00201088  RH  045%=      5-min Rain = 0
KGU1 130952Z 33003KT 02/M09 A3019 RMK A01 T00191088  RH  045%=      5-min Rain = 0
KGU1 130953Z 34003KT 02/M09 A3019 RMK A01 T00191088  RH  045%=      5-min Rain = 0
KGU1 130954Z 34003KT 02/M09 A3019 RMK A01 T00191088  RH  045%=      5-min Rain = 0
KGU1 130955Z 34003KT 02/M09 A3019 RMK A01 T00191089  RH  045%=      5-min Rain = 0
KGU1 130956Z 34003KT 02/M09 A3019 RMK A01 T00191089  RH  045%=      5-min Rain = 0
KGU1 130957Z 35003KT 02/M09 A3019 RMK A01 T00191090  RH  045%=      5-min Rain = 0
KGU1 130958Z 34003KT 02/M09 A3019 RMK A01 T00201090  RH  045%=      5-min Rain = 0
KGU1 130959Z 34003KT 02/M09 A3019 RMK A01 T00201090  RH  044%=      5-min Rain = 0
KGU1 131000Z 34003KT 02/M09 A3019 RMK A01 T00201090  RH  045%=      5-min Rain = 0
KGU1 131001Z 34004KT 02/M09 A3019 RMK A01 T00201090  RH  044%=      5-min Rain = 0
KGU1 131002Z 34004KT 02/M09 A3019 RMK A01 T00201090  RH  044%=      5-min Rain = 0
KGU1 131003Z 34003KT 02/M09 A3019 RMK A01 T00201090  RH  044%=      5-min Rain = 0
KGU1 131004Z 34003KT 02/M09 A3019 RMK A01 T00201090  RH  044%=      5-min Rain = 0
KGU1 131005Z 34003KT 02/M09 A3018 RMK A01 T00211090  RH  044%=      5-min Rain = 0
KGU1 131006Z 34003KT 02/M09 A3018 RMK A01 T00211090  RH  044%=      5-min Rain = 0
KGU1 131007Z 34003KT 02/M09 A3018 RMK A01 T00211090  RH  044%=      5-min Rain = 0
KGU1 131008Z 35003KT 02/M09 A3018 RMK A01 T00221090  RH  044%=      5-min Rain = 0
KGU1 131009Z 35003KT 02/M09 A3018 RMK A01 T00221091  RH  044%=      5-min Rain = 0
KGU1 131010Z 34003KT 02/M09 A3018 RMK A01 T00221091  RH  044%=      5-min Rain = 0
KGU1 131011Z 35003KT 02/M09 A3018 RMK A01 T00221091  RH  044%=      5-min Rain = 0
KGU1 131012Z 35003KT 02/M09 A3018 RMK A01 T00221091  RH  044%=      5-min Rain = 0
KGU1 131013Z 35003KT 02/M09 A3018 RMK A01 T00221091  RH  043%=      5-min Rain = 0
KGU1 131014Z 35003KT 02/M09 A3018 RMK A01 T00221091  RH  043%=      5-min Rain = 0
KGU1 131015Z 36003KT 02/M09 A3018 RMK A01 T00231091  RH  043%=      5-min Rain = 0
KGU1 131016Z 36003KT 02/M09 A3018 RMK A01 T00241092  RH  043%=      5-min Rain = 0
KGU1 131017Z 36003KT 03/M09 A3018 RMK A01 T00251092  RH  042%=      5-min Rain = 0
KGU1 131018Z 36003KT 03/M09 A3018 RMK A01 T00251092  RH  042%=      5-min Rain = 0
KGU1 131019Z 35003KT 03/M09 A3018 RMK A01 T00251092  RH  042%=      5-min Rain = 0
KGU1 131020Z 35003KT 03/M09 A3018 RMK A01 T00251092  RH  042%=      5-min Rain = 0
KGU1 131021Z 34003KT 02/M09 A3018 RMK A01 T00231092  RH  043%=      5-min Rain = 0
KGU1 131022Z 35003KT 02/M09 A3018 RMK A01 T00221091  RH  043%=      5-min Rain = 0
KGU1 131023Z 35004KT 02/M09 A3018 RMK A01 T00221091  RH  044%=      5-min Rain = 0
KGU1 131024Z 36004KT 02/M09 A3018 RMK A01 T00211091  RH  044%=      5-min Rain = 0
KGU1 131025Z 36003KT 02/M09 A3018 RMK A01 T00211091  RH  044%=      5-min Rain = 0
KGU1 131026Z 35004KT 02/M09 A3018 RMK A01 T00211091  RH  044%=      5-min Rain = 0
KGU1 131027Z 35003KT 02/M09 A3018 RMK A01 T00221091  RH  043%=      5-min Rain = 0
KGU1 131028Z 35003KT 02/M09 A3018 RMK A01 T00221092  RH  043%=      5-min Rain = 0
KGU1 131029Z 34003KT 02/M09 A3018 RMK A01 T00231092  RH  043%=      5-min Rain = 0
KGU1 131030Z 34003KT 02/M09 A3018 RMK A01 T00221091  RH  043%=      5-min Rain = 0
KGU1 131031Z 34004KT 02/M09 A3018 RMK A01 T00211091  RH  044%=      5-min Rain = 0
KGU1 131032Z 34003KT 02/M09 A3018 RMK A01 T00211091  RH  044%=      5-min Rain = 0
KGU1 131033Z 35003KT 02/M09 A3018 RMK A01 T00211091  RH  044%=      5-min Rain = 0
KGU1 131034Z 34003KT 02/M09 A3018 RMK A01 T00211092  RH  044%=      5-min Rain = 0
KGU1 131035Z 34003KT 02/M09 A3018 RMK A01 T00211091  RH  044%=      5-min Rain = 0
KGU1 131036Z 34003KT 02/M09 A3018 RMK A01 T00211091  RH  044%=      5-min Rain = 0
KGU1 131037Z 34003KT 02/M09 A3018 RMK A01 T00211091  RH  044%=      5-min Rain = 0
KGU1 131038Z 33003KT 02/M09 A3018 RMK A01 T00201091  RH  044%=      5-min Rain = 0
KGU1 131039Z 33003KT 02/M09 A3018 RMK A01 T00191091  RH  044%=      5-min Rain = 0
KGU1 131040Z 33003KT 02/M09 A3018 RMK A01 T00191091  RH  044%=      5-min Rain = 0
KGU1 131041Z 32003KT 02/M09 A3018 RMK A01 T00191090  RH  045%=      5-min Rain = 0
KGU1 131042Z 32003KT 02/M09 A3018 RMK A01 T00191091  RH  045%=      5-min Rain = 0
KGU1 131043Z 33003KT 02/M09 A3018 RMK A01 T00191090  RH  045%=      5-min Rain = 0
KGU1 131044Z 32004KT 02/M09 A3018 RMK A01 T00201090  RH  044%=      5-min Rain = 0
KGU1 131045Z 32003KT 02/M09 A3018 RMK A01 T00201090  RH  044%=      5-min Rain = 0
KGU1 131046Z 32004KT 02/M09 A3018 RMK A01 T00191090  RH  045%=      5-min Rain = 0
KGU1 131047Z 33004KT 02/M09 A3018 RMK A01 T00181090  RH  045%=      5-min Rain = 0
KGU1 131048Z 34004KT 02/M09 A3018 RMK A01 T00171090  RH  045%=      5-min Rain = 0
KGU1 131049Z 34004KT 02/M09 A3018 RMK A01 T00171090  RH  045%=      5-min Rain = 0
KGU1 131050Z 35003KT 02/M09 A3018 RMK A01 T00171090  RH  045%=      5-min Rain = 0
KGU1 131051Z 35003KT 02/M09 A3018 RMK A01 T00181090  RH  045%=      5-min Rain = 0
KGU1 131052Z 35004KT 02/M09 A3018 RMK A01 T00191090  RH  045%=      5-min Rain = 0
KGU1 131053Z 35004KT 02/M09 A3018 RMK A01 T00201091  RH  044%=      5-min Rain = 0
KGU1 131054Z 35004KT 02/M09 A3018 RMK A01 T00221091  RH  044%=      5-min Rain = 0
KGU1 131055Z 35004KT 02/M09 A3018 RMK A01 T00231091  RH  043%=      5-min Rain = 0
KGU1 131056Z 35004KT 02/M09 A3018 RMK A01 T00231091  RH  043%=      5-min Rain = 0
KGU1 131057Z 34004KT 02/M09 A3018 RMK A01 T00231092  RH  043%=      5-min Rain = 0
KGU1 131058Z 34004KT 02/M09 A3018 RMK A01 T00231091  RH  043%=      5-min Rain = 0
KGU1 131059Z 35004KT 02/M09 A3018 RMK A01 T00231091  RH  043%=      5-min Rain = 0
KGU1 131100Z 36004KT 02/M09 A3018 RMK A01 T00241091  RH  043%=      5-min Rain = 0
KGU1 131101Z 36004KT 03/M09 A3018 RMK A01 T00251092  RH  042%=      5-min Rain = 0
KGU1 131102Z 35004KT 03/M09 A3018 RMK A01 T00251092  RH  042%=      5-min Rain = 0
KGU1 131103Z 34004KT 03/M09 A3019 RMK A01 T00251092  RH  042%=      5-min Rain = 0
KGU1 131104Z 33003KT 03/M09 A3019 RMK A01 T00251091  RH  043%=      5-min Rain = 0
KGU1 131105Z 33003KT 02/M09 A3019 RMK A01 T00241091  RH  043%=      5-min Rain = 0
KGU1 131106Z 33003KT 02/M09 A3019 RMK A01 T00241090  RH  043%=      5-min Rain = 0
KGU1 131107Z 33003KT 02/M09 A3019 RMK A01 T00231091  RH  043%=      5-min Rain = 0
KGU1 131108Z 34003KT 02/M09 A3019 RMK A01 T00241091  RH  043%=      5-min Rain = 0
KGU1 131109Z 34004KT 02/M09 A3019 RMK A01 T00241091  RH  043%=      5-min Rain = 0
KGU1 131110Z 34004KT 02/M09 A3018 RMK A01 T00241092  RH  043%=      5-min Rain = 0
KGU1 131111Z 34004KT 03/M09 A3019 RMK A01 T00251092  RH  042%=      5-min Rain = 0
KGU1 131112Z 34004KT 03/M09 A3019 RMK A01 T00251092  RH  042%=      5-min Rain = 0
KGU1 131113Z 35004KT 03/M09 A3019 RMK A01 T00251092  RH  042%=      5-min Rain = 0
KGU1 131114Z 35004KT 03/M09 A3019 RMK A01 T00251092  RH  042%=      5-min Rain = 0
KGU1 131115Z 36005KT 03/M09 A3019 RMK A01 T00251092  RH  042%=      5-min Rain = 0
KGU1 131116Z 36005KT 03/M09 A3019 RMK A01 T00251092  RH  042%=      5-min Rain = 0
KGU1 131117Z 00005KT 03/M09 A3018 RMK A01 T00261092  RH  042%=      5-min Rain = 0
KGU1 131118Z 36005KT 03/M09 A3018 RMK A01 T00261092  RH  042%=      5-min Rain = 0
KGU1 131119Z 36005KT 03/M09 A3018 RMK A01 T00271092  RH  042%=      5-min Rain = 0
KGU1 131120Z 36005KT 03/M09 A3019 RMK A01 T00281092  RH  041%=      5-min Rain = 0
KGU1 131121Z 00005KT 03/M09 A3019 RMK A01 T00291092  RH  041%=      5-min Rain = 0
KGU1 131122Z 35005KT 03/M09 A3019 RMK A01 T00301092  RH  041%=      5-min Rain = 0
KGU1 131123Z 35005KT 03/M09 A3019 RMK A01 T00301092  RH  041%=      5-min Rain = 0
KGU1 131124Z 35005KT 03/M09 A3019 RMK A01 T00301092  RH  041%=      5-min Rain = 0
KGU1 131125Z 35005KT 03/M09 A3019 RMK A01 T00311092  RH  041%=      5-min Rain = 0
KGU1 131126Z 35004KT 03/M09 A3019 RMK A01 T00311091  RH  041%=      5-min Rain = 0
KGU1 131127Z 35004KT 03/M09 A3019 RMK A01 T00311091  RH  041%=      5-min Rain = 0
KGU1 131128Z 35004KT 03/M09 A3019 RMK A01 T00301091  RH  041%=      5-min Rain = 0
KGU1 131129Z 35004KT 03/M09 A3019 RMK A01 T00291090  RH  042%=      5-min Rain = 0
KGU1 131130Z 34004KT 03/M09 A3019 RMK A01 T00281090  RH  042%=      5-min Rain = 0
KGU1 131131Z 34004KT 03/M09 A302 RMK A01 T00281090  RH  042%=      5-min Rain = 0
KGU1 131132Z 34004KT 03/M09 A302 RMK A01 T00261089  RH  043%=      5-min Rain = 0
KGU1 131133Z 33004KT 03/M09 A302 RMK A01 T00251089  RH  043%=      5-min Rain = 0
KGU1 131134Z 33004KT 02/M09 A302 RMK A01 T00241089  RH  044%=      5-min Rain = 0
KGU1 131135Z 34004KT 02/M09 A302 RMK A01 T00231088  RH  044%=      5-min Rain = 0
KGU1 131136Z 34004KT 02/M09 A302 RMK A01 T00231088  RH  044%=      5-min Rain = 0
KGU1 131137Z 34005KT 02/M09 A302 RMK A01 T00241089  RH  044%=      5-min Rain = 0
KGU1 131138Z 35005KT 02/M09 A302 RMK A01 T00241089  RH  044%=      5-min Rain = 0
KGU1 131139Z 35005KT 03/M09 A302 RMK A01 T00251089  RH  043%=      5-min Rain = 0
KGU1 131140Z 35005KT 03/M09 A302 RMK A01 T00271089  RH  043%=      5-min Rain = 0
KGU1 131141Z 35005KT 03/M09 A302 RMK A01 T00281089  RH  042%=      5-min Rain = 0
KGU1 131142Z 35004KT 03/M09 A302 RMK A01 T00291089  RH  042%=      5-min Rain = 0
KGU1 131143Z 35004KT 03/M09 A302 RMK A01 T00291090  RH  042%=      5-min Rain = 0
KGU1 131144Z 36004KT 03/M09 A302 RMK A01 T00291090  RH  042%=      5-min Rain = 0
KGU1 131145Z 36005KT 03/M09 A3019 RMK A01 T00301089  RH  042%=      5-min Rain = 0
KGU1 131146Z 36005KT 03/M09 A3019 RMK A01 T00301089  RH  042%=      5-min Rain = 0
KGU1 131147Z 00005KT 03/M09 A3019 RMK A01 T00301090  RH  041%=      5-min Rain = 0
KGU1 131148Z 36005KT 03/M09 A3019 RMK A01 T00311089  RH  041%=      5-min Rain = 0
KGU1 131149Z 00005KT 03/M09 A3019 RMK A01 T00321090  RH  041%=      5-min Rain = 0
KGU1 131150Z 00005KT 03/M09 A3019 RMK A01 T00331090  RH  041%=      5-min Rain = 0
KGU1 131151Z 00005KT 03/M09 A3019 RMK A01 T00331089  RH  041%=      5-min Rain = 0
KGU1 131152Z 00005KT 03/M09 A3019 RMK A01 T00341090  RH  040%=      5-min Rain = 0
KGU1 131153Z 01005KT 03/M09 A3019 RMK A01 T00341089  RH  040%=      5-min Rain = 0
KGU1 131154Z 00005KT 04/M09 A302 RMK A01 T00351089  RH  040%=      5-min Rain = 0
KGU1 131155Z 00005KT 04/M09 A302 RMK A01 T00361089  RH  040%=      5-min Rain = 0
KGU1 131156Z 00005KT 04/M09 A302 RMK A01 T00371089  RH  040%=      5-min Rain = 0
KGU1 131157Z 00004KT 04/M09 A302 RMK A01 T00371089  RH  039%=      5-min Rain = 0
KGU1 131158Z 36005KT 04/M09 A302 RMK A01 T00381089  RH  039%=      5-min Rain = 0
KGU1 131159Z 00005KT 04/M09 A302 RMK A01 T00391089  RH  039%=      5-min Rain = 0
KGU1 131200Z 00005KT 04/M09 A302 RMK A01 T00391089  RH  039%=      5-min Rain = 0
KGU1 131201Z 36005KT 04/M09 A302 RMK A01 T00401089  RH  039%=      5-min Rain = 0
KGU1 131202Z 36004KT 04/M09 A302 RMK A01 T00401089  RH  039%=      5-min Rain = 0
KGU1 131203Z 00005KT 04/M09 A302 RMK A01 T00401089  RH  039%=      5-min Rain = 0
KGU1 131204Z 00004KT 04/M09 A302 RMK A01 T00401089  RH  039%=      5-min Rain = 0
KGU1 131205Z 00004KT 04/M09 A302 RMK A01 T00401089  RH  039%=      5-min Rain = 0
KGU1 131206Z 00005KT 04/M09 A302 RMK A01 T00401089  RH  039%=      5-min Rain = 0
KGU1 131207Z 01004KT 04/M09 A3021 RMK A01 T00411089  RH  039%=      5-min Rain = 0
KGU1 131208Z 01004KT 04/M09 A3021 RMK A01 T00421088  RH  039%=      5-min Rain = 0
KGU1 131209Z 00004KT 04/M09 A3021 RMK A01 T00421088  RH  039%=      5-min Rain = 0
KGU1 131210Z 00004KT 04/M09 A3021 RMK A01 T00421088  RH  039%=      5-min Rain = 0
KGU1 131211Z 01004KT 04/M09 A302 RMK A01 T00421088  RH  039%=      5-min Rain = 0
KGU1 131212Z 01004KT 04/M09 A302 RMK A01 T00421088  RH  039%=      5-min Rain = 0
KGU1 131213Z 01005KT 04/M09 A302 RMK A01 T00421088  RH  039%=      5-min Rain = 0
KGU1 131214Z 02005KT 04/M09 A302 RMK A01 T00411087  RH  039%=      5-min Rain = 0
KGU1 131215Z 02005KT 04/M09 A302 RMK A01 T00421086  RH  039%=      5-min Rain = 0
KGU1 131216Z 02006KT 04/M09 A302 RMK A01 T00421086  RH  039%=      5-min Rain = 0
KGU1 131217Z 01006KT 04/M09 A302 RMK A01 T00411086  RH  040%=      5-min Rain = 0
KGU1 131218Z 02006KT 04/M09 A3021 RMK A01 T00411085  RH  040%=      5-min Rain = 0
KGU1 131219Z 01005KT 04/M09 A3021 RMK A01 T00411085  RH  040%=      5-min Rain = 0
KGU1 131220Z 01005KT 04/M09 A3021 RMK A01 T00411085  RH  040%=      5-min Rain = 0
KGU1 131221Z 01005KT 04/M09 A3021 RMK A01 T00411085  RH  040%=      5-min Rain = 0
KGU1 131222Z 02006KT 04/M08 A3021 RMK A01 T00401084  RH  040%=      5-min Rain = 0
KGU1 131223Z 02005KT 04/M08 A3021 RMK A01 T00401084  RH  041%=      5-min Rain = 0
KGU1 131224Z 02005KT 04/M08 A3021 RMK A01 T00401084  RH  040%=      5-min Rain = 0
KGU1 131225Z 02005KT 04/M08 A3021 RMK A01 T00411084  RH  040%=      5-min Rain = 0
KGU1 131226Z 02005KT 04/M08 A3021 RMK A01 T00411083  RH  040%=      5-min Rain = 0
KGU1 131227Z 01005KT 04/M08 A3021 RMK A01 T00411083  RH  040%=      5-min Rain = 0
KGU1 131228Z 01006KT 04/M08 A3021 RMK A01 T00401083  RH  041%=      5-min Rain = 0
KGU1 131229Z 02005KT 04/M08 A3021 RMK A01 T00401083  RH  041%=      5-min Rain = 0
KGU1 131230Z 01005KT 04/M08 A3021 RMK A01 T00401083  RH  041%=      5-min Rain = 0
KGU1 131231Z 01005KT 04/M08 A3021 RMK A01 T00401083  RH  041%=      5-min Rain = 0
KGU1 131232Z 01005KT 04/M08 A3021 RMK A01 T00401083  RH  041%=      5-min Rain = 0
KGU1 131233Z 01005KT 04/M08 A3021 RMK A01 T00401083  RH  041%=      5-min Rain = 0
KGU1 131234Z 01005KT 04/M08 A3021 RMK A01 T00401082  RH  041%=      5-min Rain = 0
KGU1 131235Z 02004KT 04/M08 A3021 RMK A01 T00401082  RH  041%=      5-min Rain = 0
KGU1 131236Z 02004KT 04/M08 A3021 RMK A01 T00411082  RH  041%=      5-min Rain = 0
KGU1 131237Z 02004KT 04/M08 A3021 RMK A01 T00411083  RH  040%=      5-min Rain = 0
KGU1 131238Z 02004KT 04/M08 A3021 RMK A01 T00421083  RH  040%=      5-min Rain = 0
KGU1 131239Z 02004KT 04/M08 A3021 RMK A01 T00411083  RH  040%=      5-min Rain = 0
KGU1 131240Z 02005KT 04/M08 A3021 RMK A01 T00411083  RH  041%=      5-min Rain = 0
KGU1 131241Z 02005KT 04/M08 A3021 RMK A01 T00411083  RH  041%=      5-min Rain = 0
KGU1 131242Z 02005KT 04/M08 A3021 RMK A01 T00401083  RH  041%=      5-min Rain = 0
KGU1 131243Z 01004KT 04/M08 A3021 RMK A01 T00401083  RH  041%=      5-min Rain = 0
KGU1 131244Z 01005KT 04/M08 A3021 RMK A01 T00401083  RH  041%=      5-min Rain = 0
KGU1 131245Z 02005KT 04/M08 A3021 RMK A01 T00401082  RH  041%=      5-min Rain = 0
KGU1 131246Z 01005KT 04/M08 A3021 RMK A01 T00401082  RH  041%=      5-min Rain = 0
KGU1 131247Z 01005KT 04/M08 A3022 RMK A01 T00401082  RH  041%=      5-min Rain = 0
KGU1 131248Z 01005KT 04/M08 A3022 RMK A01 T00401082  RH  041%=      5-min Rain = 0
KGU1 131249Z 02005KT 04/M08 A3022 RMK A01 T00401082  RH  041%=      5-min Rain = 0
KGU1 131250Z 01005KT 04/M08 A3022 RMK A01 T00411082  RH  041%=      5-min Rain = 0
KGU1 131251Z 01005KT 04/M08 A3022 RMK A01 T00411082  RH  041%=      5-min Rain = 0
KGU1 131252Z 01004KT 04/M08 A3022 RMK A01 T00411082  RH  041%=      5-min Rain = 0
KGU1 131253Z 01006KT 04/M08 A3022 RMK A01 T00411082  RH  041%=      5-min Rain = 0
KGU1 131254Z 01005KT 04/M08 A3021 RMK A01 T00411082  RH  041%=      5-min Rain = 0
KGU1 131255Z 02006KT 04/M08 A3021 RMK A01 T00401082  RH  041%=      5-min Rain = 0
KGU1 131256Z 02006KT 04/M08 A3021 RMK A01 T00401082  RH  041%=      5-min Rain = 0
KGU1 131257Z 02005KT 04/M08 A3021 RMK A01 T00401082  RH  041%=      5-min Rain = 0
KGU1 131258Z 02005KT 04/M08 A3021 RMK A01 T00401082  RH  041%=      5-min Rain = 0
KGU1 131259Z 02005KT 04/M08 A3022 RMK A01 T00391082  RH  041%=      5-min Rain = 0
KGU1 131300Z 02006KT 04/M08 A3022 RMK A01 T00391082  RH  041%=      5-min Rain = 0
KGU1 131301Z 02005KT 04/M08 A3022 RMK A01 T00391082  RH  041%=      5-min Rain = 0
KGU1 131302Z 02005KT 04/M08 A3022 RMK A01 T00391082  RH  042%=      5-min Rain = 0
KGU1 131303Z 03006KT 04/M08 A3022 RMK A01 T00391081  RH  042%=      5-min Rain = 0
KGU1 131304Z 02005KT 04/M08 A3022 RMK A01 T00391082  RH  041%=      5-min Rain = 0
KGU1 131305Z 02004KT 04/M08 A3022 RMK A01 T00391082  RH  042%=      5-min Rain = 0
KGU1 131306Z 02005KT 04/M08 A3022 RMK A01 T00381081  RH  042%=      5-min Rain = 0
KGU1 131307Z 02004KT 04/M08 A3022 RMK A01 T00391081  RH  042%=      5-min Rain = 0
KGU1 131308Z 02005KT 04/M08 A3022 RMK A01 T00391081  RH  042%=      5-min Rain = 0
KGU1 131309Z 02004KT 04/M08 A3022 RMK A01 T00391082  RH  042%=      5-min Rain = 0
KGU1 131310Z 02005KT 04/M08 A3022 RMK A01 T00391081  RH  042%=      5-min Rain = 0
KGU1 131311Z 01005KT 04/M08 A3022 RMK A01 T00391082  RH  042%=      5-min Rain = 0
KGU1 131312Z 01005KT 04/M08 A3022 RMK A01 T00391082  RH  042%=      5-min Rain = 0
KGU1 131313Z 01005KT 04/M08 A3022 RMK A01 T00391081  RH  042%=      5-min Rain = 0
KGU1 131314Z 02005KT 04/M08 A3022 RMK A01 T00381081  RH  042%=      5-min Rain = 0
KGU1 131315Z 01006KT 04/M08 A3022 RMK A01 T00381081  RH  042%=      5-min Rain = 0
KGU1 131316Z 02005KT 04/M08 A3022 RMK A01 T00381081  RH  042%=      5-min Rain = 0
KGU1 131317Z 01005KT 04/M08 A3023 RMK A01 T00381081  RH  042%=      5-min Rain = 0
KGU1 131318Z 01005KT 04/M08 A3023 RMK A01 T00381081  RH  042%=      5-min Rain = 0
KGU1 131319Z 01005KT 04/M08 A3023 RMK A01 T00381081  RH  042%=      5-min Rain = 0
KGU1 131320Z 01005KT 04/M08 A3023 RMK A01 T00381081  RH  042%=      5-min Rain = 0
KGU1 131321Z 02006KT 04/M08 A3023 RMK A01 T00381081  RH  042%=      5-min Rain = 0
KGU1 131322Z 02005KT 04/M08 A3023 RMK A01 T00381081  RH  042%=      5-min Rain = 0
KGU1 131323Z 02005KT 04/M08 A3023 RMK A01 T00381082  RH  042%=      5-min Rain = 0
KGU1 131324Z 02005KT 04/M08 A3023 RMK A01 T00391082  RH  041%=      5-min Rain = 0
KGU1 131325Z 02005KT 04/M08 A3023 RMK A01 T00391082  RH  041%=      5-min Rain = 0
KGU1 131326Z 02004KT 04/M08 A3023 RMK A01 T00391082  RH  041%=      5-min Rain = 0
KGU1 131327Z 02005KT 04/M08 A3023 RMK A01 T00401082  RH  041%=      5-min Rain = 0
KGU1 131328Z 02005KT 04/M08 A3023 RMK A01 T00411082  RH  041%=      5-min Rain = 0
KGU1 131329Z 02005KT 04/M08 A3023 RMK A01 T00411082  RH  041%=      5-min Rain = 0
KGU1 131330Z 02004KT 04/M08 A3023 RMK A01 T00421082  RH  040%=      5-min Rain = 0
KGU1 131331Z 02004KT 04/M08 A3023 RMK A01 T00431082  RH  040%=      5-min Rain = 0
KGU1 131332Z 02003KT 04/M08 A3023 RMK A01 T00431082  RH  040%=      5-min Rain = 0
KGU1 131333Z 01003KT 04/M08 A3023 RMK A01 T00441082  RH  040%=      5-min Rain = 0
KGU1 131334Z 02004KT 04/M08 A3023 RMK A01 T00441082  RH  040%=      5-min Rain = 0
KGU1 131335Z 02004KT 05/M08 A3023 RMK A01 T00451082  RH  040%=      5-min Rain = 0
KGU1 131336Z 01004KT 05/M08 A3023 RMK A01 T00461082  RH  039%=      5-min Rain = 0
KGU1 131337Z 01005KT 05/M08 A3023 RMK A01 T00461082  RH  039%=      5-min Rain = 0
KGU1 131338Z 01004KT 05/M08 A3023 RMK A01 T00471082  RH  039%=      5-min Rain = 0
KGU1 131339Z 01005KT 05/M08 A3023 RMK A01 T00481082  RH  039%=      5-min Rain = 0
KGU1 131340Z 01005KT 05/M08 A3023 RMK A01 T00481082  RH  039%=      5-min Rain = 0
KGU1 131341Z 01005KT 05/M08 A3023 RMK A01 T00491082  RH  039%=      5-min Rain = 0
KGU1 131342Z 02005KT 05/M08 A3023 RMK A01 T00491082  RH  039%=      5-min Rain = 0
KGU1 131343Z 02005KT 05/M08 A3023 RMK A01 T00491082  RH  039%=      5-min Rain = 0
KGU1 131344Z 02005KT 05/M08 A3023 RMK A01 T00481082  RH  039%=      5-min Rain = 0
KGU1 131345Z 02005KT 05/M08 A3023 RMK A01 T00481082  RH  039%=      5-min Rain = 0
KGU1 131346Z 03004KT 05/M08 A3023 RMK A01 T00481082  RH  039%=      5-min Rain = 0
KGU1 131347Z 03004KT 05/M08 A3023 RMK A01 T00481082  RH  039%=      5-min Rain = 0
KGU1 131348Z 02003KT 05/M08 A3023 RMK A01 T00481082  RH  039%=      5-min Rain = 0
KGU1 131349Z 02003KT 05/M08 A3023 RMK A01 T00481082  RH  039%=      5-min Rain = 0
KGU1 131350Z 02003KT 05/M08 A3024 RMK A01 T00481082  RH  039%=      5-min Rain = 0
KGU1 131351Z 03003KT 05/M08 A3024 RMK A01 T00481082  RH  039%=      5-min Rain = 0
KGU1 131352Z 03003KT 05/M08 A3024 RMK A01 T00481082  RH  039%=      5-min Rain = 0
KGU1 131353Z 03003KT 05/M08 A3024 RMK A01 T00481082  RH  039%=      5-min Rain = 0
KGU1 131354Z 03003KT 05/M08 A3024 RMK A01 T00481082  RH  039%=      5-min Rain = 0
KGU1 131355Z 03003KT 05/M08 A3024 RMK A01 T00481082  RH  039%=      5-min Rain = 0
KGU1 131356Z 03003KT 05/M08 A3024 RMK A01 T00481082  RH  039%=      5-min Rain = 0
KGU1 131357Z 03002KT 05/M08 A3024 RMK A01 T00491081  RH  039%=      5-min Rain = 0
KGU1 131358Z 02002KT 05/M08 A3024 RMK A01 T00501081  RH  039%=      5-min Rain = 0
KGU1 131359Z 02003KT 05/M08 A3024 RMK A01 T00501079  RH  039%=      5-min Rain = 0
KGU1 131400Z 02003KT 05/M08 A3024 RMK A01 T00531078  RH  039%=      5-min Rain = 0
KGU1 131401Z 02003KT 06/M08 A3024 RMK A01 T00551078  RH  038%=      5-min Rain = 0
KGU1 131402Z 04003KT 06/M08 A3024 RMK A01 T00581079  RH  037%=      5-min Rain = 0
KGU1 131403Z 03003KT 06/M08 A3024 RMK A01 T00591081  RH  036%=      5-min Rain = 0
KGU1 131404Z 04003KT 06/M08 A3024 RMK A01 T00601080  RH  036%=      5-min Rain = 0
KGU1 131405Z 03004KT 06/M08 A3024 RMK A01 T00601081  RH  036%=      5-min Rain = 0
KGU1 131406Z 03004KT 06/M08 A3024 RMK A01 T00601082  RH  036%=      5-min Rain = 0
KGU1 131407Z 03003KT 06/M08 A3024 RMK A01 T00591083  RH  036%=      5-min Rain = 0
KGU1 131408Z 04003KT 06/M08 A3024 RMK A01 T00591081  RH  036%=      5-min Rain = 0
KGU1 131409Z 05004KT 06/M08 A3024 RMK A01 T00591081  RH  036%=      5-min Rain = 0
KGU1 131410Z 05004KT 06/M08 A3024 RMK A01 T00591081  RH  036%=      5-min Rain = 0
KGU1 131411Z 05004KT 06/M08 A3024 RMK A01 T00581080  RH  037%=      5-min Rain = 0
KGU1 131412Z 04003KT 06/M08 A3024 RMK A01 T00581079  RH  037%=      5-min Rain = 0
KGU1 131413Z 04003KT 06/M08 A3024 RMK A01 T00581078  RH  037%=      5-min Rain = 0
KGU1 131414Z 04004KT 06/M08 A3024 RMK A01 T00581080  RH  037%=      5-min Rain = 0
KGU1 131415Z 04004KT 06/M08 A3024 RMK A01 T00581080  RH  037%=      5-min Rain = 0
KGU1 131416Z 03005KT 06/M08 A3025 RMK A01 T00591081  RH  036%=      5-min Rain = 0
KGU1 131417Z 04004KT 06/M08 A3025 RMK A01 T00591080  RH  037%=      5-min Rain = 0
KGU1 131418Z 04004KT 06/M08 A3025 RMK A01 T00601080  RH  036%=      5-min Rain = 0
KGU1 131419Z 04004KT 06/M08 A3025 RMK A01 T00611080  RH  036%=      5-min Rain = 0
KGU1 131420Z 04004KT 06/M08 A3025 RMK A01 T00621080  RH  036%=      5-min Rain = 0
KGU1 131421Z 04005KT 06/M08 A3025 RMK A01 T00631082  RH  035%=      5-min Rain = 0
KGU1 131422Z 05005KT 06/M08 A3025 RMK A01 T00631081  RH  035%=      5-min Rain = 0
KGU1 131423Z 05005KT 06/M08 A3025 RMK A01 T00631082  RH  035%=      5-min Rain = 0
KGU1 131424Z 05005KT 06/M08 A3025 RMK A01 T00641082  RH  035%=      5-min Rain = 0
KGU1 131425Z 05006KT 06/M08 A3025 RMK A01 T00641082  RH  035%=      5-min Rain = 0
KGU1 131426Z 05006KT 07/M08 A3025 RMK A01 T00651083  RH  034%=      5-min Rain = 0
KGU1 131427Z 05006KT 07/M08 A3025 RMK A01 T00661084  RH  034%=      5-min Rain = 0
KGU1 131428Z 06005KT 07/M08 A3024 RMK A01 T00661083  RH  034%=      5-min Rain = 0
KGU1 131429Z 06006KT 07/M08 A3024 RMK A01 T00661084  RH  034%=      5-min Rain = 0
KGU1 131430Z 06004KT 07/M08 A3025 RMK A01 T00651083  RH  034%=      5-min Rain = 0
KGU1 131431Z 06004KT 07/M08 A3025 RMK A01 T00651083  RH  034%=      5-min Rain = 0
KGU1 131432Z 06006KT 07/M09 A3025 RMK A01 T00651085  RH  034%=      5-min Rain = 0
KGU1 131433Z 06007KT 07/M09 A3025 RMK A01 T00651085  RH  034%=      5-min Rain = 0
KGU1 131434Z 07006KT 06/M09 A3025 RMK A01 T00641085  RH  034%=      5-min Rain = 0
KGU1 131435Z 07005KT 06/M08 A3024 RMK A01 T00641084  RH  034%=      5-min Rain = 0
KGU1 131436Z 06006KT 06/M08 A3024 RMK A01 T00641084  RH  034%=      5-min Rain = 0
KGU1 131437Z 06006KT 06/M09 A3024 RMK A01 T00631085  RH  034%=      5-min Rain = 0
KGU1 131438Z 06007KT 06/M09 A3024 RMK A01 T00631085  RH  034%=      5-min Rain = 0
KGU1 131439Z 06007KT 06/M09 A3024 RMK A01 T00631085  RH  034%=      5-min Rain = 0
KGU1 131440Z 06007KT 06/M09 A3025 RMK A01 T00631085  RH  034%=      5-min Rain = 0
KGU1 131441Z 06005KT 06/M08 A3025 RMK A01 T00631084  RH  034%=      5-min Rain = 0
KGU1 131442Z 05006KT 06/M08 A3025 RMK A01 T00631084  RH  034%=      5-min Rain = 0
KGU1 131443Z 05006KT 06/M08 A3025 RMK A01 T00641084  RH  034%=      5-min Rain = 0
KGU1 131444Z 06005KT 07/M08 A3025 RMK A01 T00651083  RH  034%=      5-min Rain = 0
KGU1 131445Z 05006KT 07/M08 A3025 RMK A01 T00661083  RH  034%=      5-min Rain = 0
KGU1 131446Z 06006KT 07/M08 A3025 RMK A01 T00681083  RH  034%=      5-min Rain = 0
KGU1 131447Z 06004KT 07/M08 A3025 RMK A01 T00701082  RH  033%=      5-min Rain = 0
KGU1 131448Z 06006KT 07/M08 A3025 RMK A01 T00721082  RH  033%=      5-min Rain = 0
KGU1 131449Z 06006KT 07/M08 A3025 RMK A01 T00721083  RH  033%=      5-min Rain = 0
KGU1 131450Z 07006KT 07/M09 A3025 RMK A01 T00721085  RH  032%=      5-min Rain = 0
KGU1 131451Z 08006KT 07/M09 A3025 RMK A01 T00711085  RH  032%=      5-min Rain = 0
KGU1 131452Z 06006KT 07/M09 A3025 RMK A01 T00701085  RH  032%=      5-min Rain = 0
KGU1 131453Z 05006KT 07/M09 A3025 RMK A01 T00691085  RH  033%=      5-min Rain = 0
KGU1 131454Z 05005KT 07/M09 A3025 RMK A01 T00691085  RH  033%=      5-min Rain = 0
KGU1 131455Z 04005KT 07/M09 A3025 RMK A01 T00691085  RH  033%=      5-min Rain = 0
KGU1 131456Z 04005KT 07/M09 A3025 RMK A01 T00691086  RH  033%=      5-min Rain = 0
KGU1 131457Z 05006KT 07/M09 A3025 RMK A01 T00681086  RH  033%=      5-min Rain = 0
KGU1 131458Z 04005KT 07/M09 A3025 RMK A01 T00681085  RH  033%=      5-min Rain = 0
KGU1 131459Z 04006KT 07/M08 A3025 RMK A01 T00681084  RH  033%=      5-min Rain = 0
KGU1 131500Z 04007KT 07/M09 A3025 RMK A01 T00681085  RH  033%=      5-min Rain = 0
KGU1 131501Z 04005KT 07/M08 A3025 RMK A01 T00691084  RH  033%=      5-min Rain = 0
KGU1 131502Z 05007KT 07/M08 A3025 RMK A01 T00691084  RH  033%=      5-min Rain = 0
KGU1 131503Z 05007KT 07/M09 A3025 RMK A01 T00691085  RH  033%=      5-min Rain = 0
KGU1 131504Z 04006KT 07/M09 A3025 RMK A01 T00691085  RH  033%=      5-min Rain = 0
KGU1 131505Z 04005KT 07/M08 A3025 RMK A01 T00691084  RH  033%=      5-min Rain = 0
KGU1 131506Z 05006KT 07/M09 A3025 RMK A01 T00701085  RH  033%=      5-min Rain = 0
KGU1 131507Z 06007KT 07/M08 A3025 RMK A01 T00701084  RH  033%=      5-min Rain = 0
KGU1 131508Z 05005KT 07/M08 A3025 RMK A01 T00701083  RH  033%=      5-min Rain = 0
KGU1 131509Z 05005KT 07/M08 A3025 RMK A01 T00711084  RH  033%=      5-min Rain = 0
KGU1 131510Z 04005KT 07/M08 A3025 RMK A01 T00721083  RH  033%=      5-min Rain = 0
KGU1 131511Z 05006KT 07/M08 A3025 RMK A01 T00721084  RH  032%=      5-min Rain = 0
KGU1 131512Z 04006KT 07/M08 A3025 RMK A01 T00731083  RH  033%=      5-min Rain = 0
KGU1 131513Z 04007KT 07/M08 A3025 RMK A01 T00731083  RH  032%=      5-min Rain = 0
KGU1 131514Z 05006KT 07/M08 A3025 RMK A01 T00731084  RH  032%=      5-min Rain = 0
KGU1 131515Z 05005KT 07/M08 A3025 RMK A01 T00721083  RH  033%=      5-min Rain = 0
KGU1 131516Z 05005KT 07/M08 A3025 RMK A01 T00731082  RH  033%=      5-min Rain = 0
KGU1 131517Z 05007KT 07/M08 A3025 RMK A01 T00731083  RH  032%=      5-min Rain = 0
KGU1 131518Z 05007KT 07/M08 A3025 RMK A01 T00731083  RH  032%=      5-min Rain = 0
KGU1 131519Z 05005KT 07/M08 A3025 RMK A01 T00731083  RH  032%=      5-min Rain = 0
KGU1 131520Z 06006KT 07/M08 A3025 RMK A01 T00731083  RH  032%=      5-min Rain = 0
KGU1 131521Z 05007KT 07/M08 A3025 RMK A01 T00731083  RH  033%=      5-min Rain = 0
KGU1 131522Z 06006KT 07/M08 A3025 RMK A01 T00731084  RH  032%=      5-min Rain = 0
KGU1 131523Z 05005KT 07/M08 A3025 RMK A01 T00721083  RH  033%=      5-min Rain = 0
KGU1 131524Z 03005KT 07/M08 A3025 RMK A01 T00731083  RH  033%=      5-min Rain = 0
KGU1 131525Z 04004KT 07/M08 A3025 RMK A01 T00731082  RH  033%=      5-min Rain = 0
KGU1 131526Z 02006KT 07/M08 A3025 RMK A01 T00741082  RH  032%=      5-min Rain = 0
KGU1 131527Z 02007KT 08/M08 A3025 RMK A01 T00751082  RH  032%=      5-min Rain = 0
KGU1 131528Z 03008KT 08/M08 A3025 RMK A01 T00751083  RH  032%=      5-min Rain = 0
KGU1 131529Z 02006KT 08/M08 A3025 RMK A01 T00761081  RH  032%=      5-min Rain = 0
KGU1 131530Z 02006KT 08/M08 A3025 RMK A01 T00771082  RH  032%=      5-min Rain = 0
KGU1 131531Z 03007KT 08/M08 A3025 RMK A01 T00771082  RH  032%=      5-min Rain = 0
KGU1 131532Z 02007KT 08/M08 A3025 RMK A01 T00771081  RH  032%=      5-min Rain = 0
KGU1 131533Z 01006KT 08/M08 A3025 RMK A01 T00791080  RH  032%=      5-min Rain = 0
KGU1 131534Z 01006KT 08/M08 A3025 RMK A01 T00801080  RH  032%=      5-min Rain = 0
KGU1 131535Z 02006KT 08/M08 A3025 RMK A01 T00821081  RH  031%=      5-min Rain = 0
KGU1 131536Z 03007KT 08/M08 A3025 RMK A01 T00821080  RH  031%=      5-min Rain = 0
KGU1 131537Z 03007KT 08/M08 A3025 RMK A01 T00831080  RH  031%=      5-min Rain = 0
KGU1 131538Z 02007KT 08/M08 A3025 RMK A01 T00841079  RH  031%=      5-min Rain = 0
KGU1 131539Z 02007KT 09/M08 A3025 RMK A01 T00861079  RH  031%=      5-min Rain = 0
KGU1 131540Z 03008KT 09/M08 A3025 RMK A01 T00861080  RH  030%=      5-min Rain = 0
KGU1 131541Z 03008KT 09/M08 A3025 RMK A01 T00861079  RH  031%=      5-min Rain = 0
KGU1 131542Z 03007KT 09/M08 A3025 RMK A01 T00861079  RH  031%=      5-min Rain = 0
KGU1 131543Z 03008KT 09/M08 A3025 RMK A01 T00871079  RH  031%=      5-min Rain = 0
KGU1 131544Z 02007KT 09/M08 A3026 RMK A01 T00861080  RH  030%=      5-min Rain = 0
KGU1 131545Z 01006KT 09/M08 A3026 RMK A01 T00851079  RH  031%=      5-min Rain = 0
KGU1 131546Z 03008KT 09/M08 A3026 RMK A01 T00861078  RH  031%=      5-min Rain = 0
KGU1 131547Z 02007KT 09/M08 A3026 RMK A01 T00871079  RH  030%=      5-min Rain = 0
KGU1 131548Z 02007KT 09/M08 A3026 RMK A01 T00861079  RH  031%=      5-min Rain = 0
KGU1 131549Z 03008KT 09/M08 A3025 RMK A01 T00861079  RH  031%=      5-min Rain = 0
KGU1 131550Z 01006KT 09/M08 A3025 RMK A01 T00871077  RH  031%=      5-min Rain = 0
KGU1 131551Z 03008KT 09/M08 A3025 RMK A01 T00891078  RH  030%=      5-min Rain = 0
KGU1 131552Z 05008KT 09/M08 A3026 RMK A01 T00901077  RH  030%=      5-min Rain = 0
KGU1 131553Z 05008KT 09/M08 A3026 RMK A01 T00901079  RH  030%=      5-min Rain = 0
KGU1 131554Z 03007KT 09/M08 A3026 RMK A01 T00881078  RH  030%=      5-min Rain = 0
KGU1 131555Z 03009KT 09/M08 A3026 RMK A01 T00891077  RH  030%=      5-min Rain = 0
KGU1 131556Z 03009KT 09/M08 A3026 RMK A01 T00901078  RH  030%=      5-min Rain = 0
KGU1 131557Z 03006KT 09/M08 A3025 RMK A01 T00911077  RH  030%=      5-min Rain = 0
KGU1 131558Z 02009KT 09/M08 A3026 RMK A01 T00921078  RH  030%=      5-min Rain = 0
KGU1 131559Z 03009KT 09/M08 A3025 RMK A01 T00921078  RH  030%=      5-min Rain = 0
KGU1 131600Z 03010KT 09/M08 A3025 RMK A01 T00931078  RH  030%=      5-min Rain = 0
KGU1 131601Z 02008KT 09/M08 A3025 RMK A01 T00931078  RH  029%=      5-min Rain = 0
KGU1 131602Z 04008KT 09/M08 A3025 RMK A01 T00931078  RH  030%=      5-min Rain = 0
KGU1 131603Z 03010KT 09/M08 A3025 RMK A01 T00941078  RH  029%=      5-min Rain = 0
KGU1 131604Z 03010KT 10/M08 A3026 RMK A01 T00951077  RH  029%=      5-min Rain = 0
KGU1 131605Z 01008KT 10/M08 A3026 RMK A01 T00961077  RH  029%=      5-min Rain = 0
KGU1 131606Z 03007KT 10/M08 A3026 RMK A01 T00971076  RH  029%=      5-min Rain = 0
KGU1 131607Z 02008KT 10/M08 A3026 RMK A01 T00991077  RH  029%=      5-min Rain = 0
KGU1 131608Z 05009KT 10/M08 A3026 RMK A01 T00981077  RH  029%=      5-min Rain = 0
KGU1 131609Z 06008KT 10/M08 A3026 RMK A01 T00971078  RH  029%=      5-min Rain = 0
KGU1 131610Z 05007KT 10/M08 A3026 RMK A01 T00971076  RH  029%=      5-min Rain = 0
KGU1 131611Z 03009KT 10/M08 A3026 RMK A01 T00981076  RH  029%=      5-min Rain = 0
KGU1 131612Z 04010KT 10/M08 A3026 RMK A01 T00991077  RH  029%=      5-min Rain = 0
KGU1 131613Z 03007KT 10/M08 A3026 RMK A01 T00981077  RH  029%=      5-min Rain = 0
KGU1 131614Z 03006KT 10/M08 A3026 RMK A01 T00981077  RH  029%=      5-min Rain = 0
KGU1 131615Z 03005KT 10/M08 A3026 RMK A01 T00981078  RH  028%=      5-min Rain = 0
KGU1 131616Z 04007KT 10/M08 A3026 RMK A01 T00971078  RH  029%=      5-min Rain = 0
KGU1 131617Z 07008KT 10/M08 A3026 RMK A01 T00981076  RH  029%=      5-min Rain = 0
KGU1 131618Z 07009KT 10/M08 A3026 RMK A01 T00991078  RH  028%=      5-min Rain = 0
KGU1 131619Z 08003KT 10/M08 A3026 RMK A01 T00991077  RH  028%=      5-min Rain = 0
KGU1 131620Z 06003G10KT 10/M08 A3026 RMK A01 T00991076  RH  029%=      5-min Rain = 0
KGU1 131621Z 02010KT 10/M08 A3026 RMK A01 T01011076  RH  028%=      5-min Rain = 0
KGU1 131622Z 02010KT 10/M08 A3027 RMK A01 T01011077  RH  028%=      5-min Rain = 0
KGU1 131623Z 03007KT 10/M08 A3027 RMK A01 T01021076  RH  028%=      5-min Rain = 0
KGU1 131624Z 04008KT 10/M08 A3027 RMK A01 T01021077  RH  028%=      5-min Rain = 0
KGU1 131625Z 07008KT 10/M08 A3027 RMK A01 T01021076  RH  028%=      5-min Rain = 0
KGU1 131626Z 09006KT 10/M08 A3027 RMK A01 T01021076  RH  028%=      5-min Rain = 0
KGU1 131627Z 06007KT 10/M08 A3027 RMK A01 T01031075  RH  028%=      5-min Rain = 0
KGU1 131628Z 06010KT 10/M08 A3027 RMK A01 T01041076  RH  028%=      5-min Rain = 0
KGU1 131629Z 07008KT 10/M08 A3027 RMK A01 T01041076  RH  028%=      5-min Rain = 0
KGU1 131630Z 06008KT 11/M07 A3026 RMK A01 T01051074  RH  028%=      5-min Rain = 0
KGU1 131631Z 05006KT 11/M07 A3026 RMK A01 T01071074  RH  028%=      5-min Rain = 0
KGU1 131632Z 03006KT 11/M07 A3026 RMK A01 T01081074  RH  027%=      5-min Rain = 0
KGU1 131633Z 02004KT 11/M08 A3026 RMK A01 T01091076  RH  027%=      5-min Rain = 0
KGU1 131634Z 02006KT 11/M08 A3026 RMK A01 T01081076  RH  027%=      5-min Rain = 0
KGU1 131635Z 07010KT 11/M08 A3026 RMK A01 T01071075  RH  027%=      5-min Rain = 0
KGU1 131636Z 08011KT 11/M08 A3026 RMK A01 T01071075  RH  027%=      5-min Rain = 0
KGU1 131637Z 07009KT 11/M08 A3026 RMK A01 T01071075  RH  028%=      5-min Rain = 0
KGU1 131638Z 05007KT 11/M08 A3026 RMK A01 T01061077  RH  027%=      5-min Rain = 0
KGU1 131639Z 03007KT 10/M08 A3027 RMK A01 T01041076  RH  028%=      5-min Rain = 0
KGU1 131640Z 04009KT 11/M08 A3027 RMK A01 T01051075  RH  028%=      5-min Rain = 0
KGU1 131641Z 03009KT 11/M08 A3027 RMK A01 T01051075  RH  028%=      5-min Rain = 0
KGU1 131642Z 01007KT 11/M08 A3027 RMK A01 T01051075  RH  028%=      5-min Rain = 0
KGU1 131643Z 01006KT 11/M08 A3027 RMK A01 T01051075  RH  028%=      5-min Rain = 0
KGU1 131644Z 05006KT 11/M07 A3027 RMK A01 T01071073  RH  028%=      5-min Rain = 0
KGU1 131645Z 06008KT 11/M07 A3027 RMK A01 T01111073  RH  027%=      5-min Rain = 0
KGU1 131646Z 06010KT 11/M07 A3027 RMK A01 T01141074  RH  027%=      5-min Rain = 0
KGU1 131647Z 06009KT 11/M07 A3027 RMK A01 T01111074  RH  027%=      5-min Rain = 0
KGU1 131648Z 05008KT 11/M08 A3027 RMK A01 T01101075  RH  027%=      5-min Rain = 0
KGU1 131649Z 05008KT 11/M07 A3027 RMK A01 T01101074  RH  027%=      5-min Rain = 0
KGU1 131650Z 06008KT 11/M08 A3027 RMK A01 T01091075  RH  027%=      5-min Rain = 0
KGU1 131651Z 04008KT 11/M07 A3027 RMK A01 T01081074  RH  027%=      5-min Rain = 0
KGU1 131652Z 04009KT 11/M08 A3027 RMK A01 T01081075  RH  027%=      5-min Rain = 0
KGU1 131653Z 04011KT 11/M07 A3027 RMK A01 T01101074  RH  027%=      5-min Rain = 0
KGU1 131654Z 05010KT 11/M08 A3027 RMK A01 T01091075  RH  027%=      5-min Rain = 0
KGU1 131655Z 04007KT 11/M07 A3027 RMK A01 T01081074  RH  027%=      5-min Rain = 0
KGU1 131656Z 07006KT 11/M07 A3027 RMK A01 T01071074  RH  028%=      5-min Rain = 0
KGU1 131657Z 05005G10KT 11/M07 A3027 RMK A01 T01081073  RH  028%=      5-min Rain = 0
KGU1 131658Z 05011KT 11/M07 A3027 RMK A01 T01101073  RH  027%=      5-min Rain = 0
KGU1 131659Z 06008KT 11/M07 A3027 RMK A01 T01101073  RH  027%=      5-min Rain = 0
KGU1 131700Z 09008KT 11/M07 A3027 RMK A01 T01111073  RH  027%=      5-min Rain = 0
KGU1 131701Z 08008KT 11/M07 A3027 RMK A01 T01121074  RH  027%=      5-min Rain = 0
KGU1 131702Z 07007KT 11/M07 A3027 RMK A01 T01111074  RH  027%=      5-min Rain = 0
KGU1 131703Z 05006KT 11/M07 A3027 RMK A01 T01121072  RH  027%=      5-min Rain = 0
KGU1 131704Z 08010KT 11/M07 A3027 RMK A01 T01131074  RH  027%=      5-min Rain = 0
KGU1 131705Z 07009KT 11/M07 A3028 RMK A01 T01131073  RH  027%=      5-min Rain = 0
KGU1 131706Z 07008KT 11/M07 A3027 RMK A01 T01141073  RH  027%=      5-min Rain = 0
KGU1 131707Z 04007KT 11/M07 A3027 RMK A01 T01141074  RH  027%=      5-min Rain = 0
KGU1 131708Z 03008KT 12/M07 A3027 RMK A01 T01151073  RH  026%=      5-min Rain = 0
KGU1 131709Z 06007KT 12/M07 A3027 RMK A01 T01171073  RH  026%=      5-min Rain = 0
KGU1 131710Z 03008KT 12/M07 A3027 RMK A01 T01181074  RH  026%=      5-min Rain = 0
KGU1 131711Z 05006KT 12/M07 A3027 RMK A01 T01181074  RH  026%=      5-min Rain = 0
KGU1 131712Z 08009KT 12/M07 A3027 RMK A01 T01191073  RH  026%=      5-min Rain = 0
KGU1 131713Z 08009KT 12/M07 A3027 RMK A01 T01181074  RH  026%=      5-min Rain = 0
KGU1 131714Z 07009KT 12/M07 A3027 RMK A01 T01181074  RH  026%=      5-min Rain = 0
KGU1 131715Z 07009KT 12/M07 A3027 RMK A01 T01161073  RH  026%=      5-min Rain = 0
KGU1 131716Z 07007KT 12/M07 A3027 RMK A01 T01151074  RH  026%=      5-min Rain = 0
KGU1 131717Z 06008KT 11/M07 A3027 RMK A01 T01141073  RH  026%=      5-min Rain = 0
KGU1 131718Z 07009KT 12/M07 A3027 RMK A01 T01151073  RH  026%=      5-min Rain = 0
KGU1 131719Z 07007KT 12/M07 A3027 RMK A01 T01151073  RH  026%=      5-min Rain = 0
KGU1 131720Z 05008KT 11/M07 A3027 RMK A01 T01141073  RH  027%=      5-min Rain = 0
KGU1 131721Z 06004G9KT 11/M07 A3027 RMK A01 T01131072  RH  027%=      5-min Rain = 0
KGU1 131722Z 06008KT 11/M07 A3027 RMK A01 T01141074  RH  026%=      5-min Rain = 0
KGU1 131723Z 07009KT 11/M07 A3027 RMK A01 T01131074  RH  026%=      5-min Rain = 0
KGU1 131724Z 06008KT 11/M08 A3027 RMK A01 T01121075  RH  027%=      5-min Rain = 0
KGU1 131725Z 05008KT 11/M08 A3027 RMK A01 T01101076  RH  027%=      5-min Rain = 0
KGU1 131726Z 06006G11KT 11/M08 A3027 RMK A01 T01091075  RH  027%=      5-min Rain = 0
KGU1 131727Z 08011KT 11/M08 A3027 RMK A01 T01091076  RH  027%=      5-min Rain = 0
KGU1 131728Z 07009KT 11/M07 A3027 RMK A01 T01101074  RH  027%=      5-min Rain = 0
KGU1 131729Z 07009KT 11/M07 A3027 RMK A01 T01121074  RH  027%=      5-min Rain = 0
KGU1 131730Z 06010KT 11/M08 A3028 RMK A01 T01131075  RH  026%=      5-min Rain = 0
KGU1 131731Z 06008KT 11/M08 A3028 RMK A01 T01111075  RH  027%=      5-min Rain = 0
KGU1 131732Z 06010KT 11/M08 A3028 RMK A01 T01101076  RH  027%=      5-min Rain = 0
KGU1 131733Z 07006KT 11/M08 A3028 RMK A01 T01091076  RH  027%=      5-min Rain = 0
KGU1 131734Z 08006KT 11/M07 A3028 RMK A01 T01111074  RH  027%=      5-min Rain = 0
KGU1 131735Z 08010KT 12/M07 A3028 RMK A01 T01151074  RH  026%=      5-min Rain = 0
KGU1 131736Z 05009KT 12/M08 A3028 RMK A01 T01171075  RH  025%=      5-min Rain = 0
KGU1 131737Z 09008KT 12/M08 A3028 RMK A01 T01171076  RH  025%=      5-min Rain = 0
KGU1 131738Z 06009KT 12/M08 A3028 RMK A01 T01161076  RH  026%=      5-min Rain = 0
KGU1 131739Z 06010KT 11/M08 A3028 RMK A01 T01141078  RH  026%=      5-min Rain = 0
KGU1 131740Z 09008KT 11/M08 A3028 RMK A01 T01121077  RH  026%=      5-min Rain = 0
KGU1 131741Z 09008KT 11/M08 A3028 RMK A01 T01111077  RH  026%=      5-min Rain = 0
KGU1 131742Z 08008KT 11/M08 A3028 RMK A01 T01111077  RH  026%=      5-min Rain = 0
KGU1 131743Z 10010G15KT 11/M08 A3028 RMK A01 T01111077  RH  026%=      5-min Rain = 0
KGU1 131744Z 07010KT 11/M08 A3027 RMK A01 T01111077  RH  026%=      5-min Rain = 0
KGU1 131745Z 08010KT 11/M08 A3027 RMK A01 T01101077  RH  026%=      5-min Rain = 0
KGU1 131746Z 09009KT 11/M08 A3027 RMK A01 T01101077  RH  027%=      5-min Rain = 0
KGU1 131747Z 09010KT 11/M08 A3027 RMK A01 T01101075  RH  027%=      5-min Rain = 0
KGU1 131748Z 09009KT 11/M08 A3027 RMK A01 T01121075  RH  026%=      5-min Rain = 0
KGU1 131749Z 11008KT 11/M08 A3027 RMK A01 T01141076  RH  026%=      5-min Rain = 0
KGU1 131750Z 08009G15KT 12/M07 A3027 RMK A01 T01151074  RH  026%=      5-min Rain = 0
KGU1 131751Z 07011KT 12/M08 A3027 RMK A01 T01171075  RH  026%=      5-min Rain = 0
KGU1 131752Z 09007KT 12/M07 A3027 RMK A01 T01171074  RH  026%=      5-min Rain = 0
KGU1 131753Z 09009KT 12/M07 A3027 RMK A01 T01171073  RH  026%=      5-min Rain = 0
KGU1 131754Z 10011KT 12/M08 A3027 RMK A01 T01181075  RH  026%=      5-min Rain = 0
KGU1 131755Z 07011KT 12/M07 A3028 RMK A01 T01181074  RH  026%=      5-min Rain = 0
KGU1 131756Z 06008KT 12/M07 A3028 RMK A01 T01181074  RH  026%=      5-min Rain = 0
KGU1 131757Z 05008KT 12/M07 A3028 RMK A01 T01181074  RH  026%=      5-min Rain = 0
KGU1 131758Z 04007KT 12/M07 A3028 RMK A01 T01181074  RH  026%=      5-min Rain = 0
KGU1 131759Z 04006KT 12/M07 A3028 RMK A01 T01191073  RH  026%=      5-min Rain = 0
KGU1 131800Z 06006KT 12/M07 A3028 RMK A01 T01221072  RH  026%=      5-min Rain = 0
KGU1 131801Z 06007KT 13/M07 A3028 RMK A01 T01251073  RH  025%=      5-min Rain = 0
KGU1 131802Z 04010KT 13/M07 A3028 RMK A01 T01261074  RH  024%=      5-min Rain = 0
KGU1 131803Z 05010KT 13/M07 A3028 RMK A01 T01261074  RH  024%=      5-min Rain = 0
KGU1 131804Z 05009KT 12/M07 A3028 RMK A01 T01241073  RH  025%=      5-min Rain = 0
KGU1 131805Z 07008KT 13/M07 A3028 RMK A01 T01251074  RH  025%=      5-min Rain = 0
KGU1 131806Z 06011KT 12/M08 A3028 RMK A01 T01231075  RH  025%=      5-min Rain = 0
KGU1 131807Z 06008KT 12/M07 A3028 RMK A01 T01211074  RH  025%=      5-min Rain = 0
KGU1 131808Z 06007KT 12/M07 A3028 RMK A01 T01201074  RH  025%=      5-min Rain = 0
KGU1 131809Z 07007KT 12/M08 A3028 RMK A01 T01201075  RH  025%=      5-min Rain = 0
KGU1 131810Z 07006KT 12/M07 A3028 RMK A01 T01211073  RH  026%=      5-min Rain = 0
KGU1 131811Z 07008KT 12/M07 A3028 RMK A01 T01231073  RH  025%=      5-min Rain = 0
KGU1 131812Z 04010KT 12/M07 A3028 RMK A01 T01241074  RH  025%=      5-min Rain = 0
KGU1 131813Z 05010KT 12/M08 A3028 RMK A01 T01231076  RH  025%=      5-min Rain = 0
KGU1 131814Z 07010KT 12/M08 A3028 RMK A01 T01201076  RH  025%=      5-min Rain = 0
KGU1 131815Z 03010KT 12/M08 A3028 RMK A01 T01171075  RH  026%=      5-min Rain = 0
KGU1 131816Z 03009KT 12/M08 A3028 RMK A01 T01151077  RH  026%=      5-min Rain = 0
KGU1 131817Z 03007KT 11/M08 A3028 RMK A01 T01141075  RH  026%=      5-min Rain = 0
KGU1 131818Z 06008KT 11/M08 A3028 RMK A01 T01141076  RH  026%=      5-min Rain = 0
KGU1 131819Z 09011KT 12/M08 A3028 RMK A01 T01151076  RH  026%=      5-min Rain = 0
KGU1 131820Z 09011KT 12/M08 A3028 RMK A01 T01151076  RH  026%=      5-min Rain = 0
KGU1 131821Z 08011KT 11/M08 A3028 RMK A01 T01141076  RH  026%=      5-min Rain = 0
KGU1 131822Z 08010KT 11/M08 A3028 RMK A01 T01131076  RH  026%=      5-min Rain = 0
KGU1 131823Z 07011KT 11/M08 A3028 RMK A01 T01131076  RH  026%=      5-min Rain = 0
KGU1 131824Z 06007KT 12/M07 A3027 RMK A01 T01151074  RH  026%=      5-min Rain = 0
KGU1 131825Z 04008KT 12/M08 A3027 RMK A01 T01191075  RH  025%=      5-min Rain = 0
KGU1 131826Z 08008KT 12/M08 A3027 RMK A01 T01201075  RH  025%=      5-min Rain = 0
KGU1 131827Z 09010KT 12/M08 A3027 RMK A01 T01211075  RH  025%=      5-min Rain = 0
KGU1 131828Z 08008KT 12/M07 A3027 RMK A01 T01211074  RH  025%=      5-min Rain = 0
KGU1 131829Z 07011G16KT 12/M08 A3027 RMK A01 T01221076  RH  025%=      5-min Rain = 0
KGU1 131830Z 07011KT 12/M08 A3027 RMK A01 T01211076  RH  025%=      5-min Rain = 0
KGU1 131831Z 08010KT 12/M07 A3027 RMK A01 T01201074  RH  025%=      5-min Rain = 0
KGU1 131832Z 08010KT 12/M07 A3027 RMK A01 T01211074  RH  025%=      5-min Rain = 0
KGU1 131833Z 08008KT 12/M08 A3027 RMK A01 T01231076  RH  024%=      5-min Rain = 0
KGU1 131834Z 08007KT 12/M08 A3027 RMK A01 T01231075  RH  025%=      5-min Rain = 0
KGU1 131835Z 06008KT 12/M07 A3027 RMK A01 T01241074  RH  025%=      5-min Rain = 0
KGU1 131836Z 04010KT 13/M07 A3027 RMK A01 T01251074  RH  025%=      5-min Rain = 0
KGU1 131837Z 07010KT 13/M08 A3027 RMK A01 T01271075  RH  024%=      5-min Rain = 0
KGU1 131838Z 06009KT 12/M08 A3027 RMK A01 T01231075  RH  025%=      5-min Rain = 0
KGU1 131839Z 06011KT 12/M08 A3027 RMK A01 T01211075  RH  025%=      5-min Rain = 0
KGU1 131840Z 05010KT 12/M07 A3027 RMK A01 T01201074  RH  025%=      5-min Rain = 0
KGU1 131841Z 04010KT 12/M08 A3027 RMK A01 T01201075  RH  025%=      5-min Rain = 0
KGU1 131842Z 05010KT 12/M08 A3027 RMK A01 T01201075  RH  025%=      5-min Rain = 0
KGU1 131843Z 05008KT 12/M07 A3027 RMK A01 T01201074  RH  025%=      5-min Rain = 0
KGU1 131844Z 08008KT 12/M08 A3026 RMK A01 T01211075  RH  025%=      5-min Rain = 0
KGU1 131845Z 08008KT 12/M07 A3026 RMK A01 T01201074  RH  025%=      5-min Rain = 0
KGU1 131846Z 08008G14KT 12/M07 A3026 RMK A01 T01211073  RH  025%=      5-min Rain = 0
KGU1 131847Z 08011KT 12/M08 A3026 RMK A01 T01221076  RH  025%=      5-min Rain = 0
KGU1 131848Z 08010G15KT 12/M08 A3027 RMK A01 T01211076  RH  025%=      5-min Rain = 0
KGU1 131849Z 09008KT 12/M08 A3027 RMK A01 T01201075  RH  025%=      5-min Rain = 0
KGU1 131850Z 10007KT 12/M08 A3026 RMK A01 T01201075  RH  025%=      5-min Rain = 0
KGU1 131851Z 07010KT 12/M08 A3026 RMK A01 T01211075  RH  025%=      5-min Rain = 0
KGU1 131852Z 03008KT 12/M07 A3027 RMK A01 T01231073  RH  025%=      5-min Rain = 0
KGU1 131853Z 05007KT 13/M07 A3026 RMK A01 T01281073  RH  024%=      5-min Rain = 0
KGU1 131854Z 08011KT 13/M08 A3026 RMK A01 T01291075  RH  024%=      5-min Rain = 0
KGU1 131855Z 10010KT 13/M08 A3026 RMK A01 T01301076  RH  023%=      5-min Rain = 0
KGU1 131856Z 09010KT 13/M08 A3026 RMK A01 T01301075  RH  024%=      5-min Rain = 0
KGU1 131857Z 08012KT 13/M08 A3026 RMK A01 T01301075  RH  024%=      5-min Rain = 0
KGU1 131858Z 09011KT 13/M08 A3026 RMK A01 T01301075  RH  024%=      5-min Rain = 0
KGU1 131859Z 08012KT 13/M08 A3026 RMK A01 T01271075  RH  024%=      5-min Rain = 0
KGU1 131900Z 05010G15KT 13/M07 A3026 RMK A01 T01251073  RH  025%=      5-min Rain = 0
KGU1 131901Z 04012KT 13/M08 A3026 RMK A01 T01261075  RH  024%=      5-min Rain = 0
KGU1 131902Z 06012KT 13/M07 A3026 RMK A01 T01281074  RH  024%=      5-min Rain = 0
KGU1 131903Z 08011KT 13/M07 A3026 RMK A01 T01301073  RH  024%=      5-min Rain = 0
KGU1 131904Z 09010KT 13/M07 A3026 RMK A01 T01291073  RH  024%=      5-min Rain = 0
KGU1 131905Z 08007KT 13/M07 A3026 RMK A01 T01271072  RH  025%=      5-min Rain = 0
KGU1 131906Z 07007G12KT 13/M07 A3026 RMK A01 T01261071  RH  025%=      5-min Rain = 0
KGU1 131907Z 06004KT 13/M07 A3026 RMK A01 T01261072  RH  025%=      5-min Rain = 0
KGU1 131908Z 05010G15KT 13/M07 A3026 RMK A01 T01281071  RH  025%=      5-min Rain = 0
KGU1 131909Z 05010KT 13/M07 A3026 RMK A01 T01301074  RH  024%=      5-min Rain = 0
KGU1 131910Z 05009KT 13/M07 A3026 RMK A01 T01291073  RH  024%=      5-min Rain = 0
KGU1 131911Z 07009KT 13/M07 A3026 RMK A01 T01301072  RH  024%=      5-min Rain = 0
KGU1 131912Z 08014G20KT 13/M07 A3026 RMK A01 T01331072  RH  024%=      5-min Rain = 0
KGU1 131913Z 09013KT 13/M07 A3026 RMK A01 T01321072  RH  024%=      5-min Rain = 0
KGU1 131914Z 08013KT 13/M07 A3026 RMK A01 T01301073  RH  024%=      5-min Rain = 0
KGU1 131915Z 08011KT 13/M07 A3026 RMK A01 T01271072  RH  025%=      5-min Rain = 0
KGU1 131916Z 08011KT 13/M07 A3026 RMK A01 T01251073  RH  025%=      5-min Rain = 0
KGU1 131917Z 07008KT 12/M07 A3026 RMK A01 T01231073  RH  025%=      5-min Rain = 0
KGU1 131918Z 10007KT 12/M07 A3026 RMK A01 T01231073  RH  025%=      5-min Rain = 0
KGU1 131919Z 10007KT 12/M07 A3025 RMK A01 T01221071  RH  026%=      5-min Rain = 0
KGU1 131920Z 09014KT 13/M07 A3025 RMK A01 T01251070  RH  025%=      5-min Rain = 0
KGU1 131921Z 10010G15KT 13/M07 A3025 RMK A01 T01261071  RH  025%=      5-min Rain = 0
KGU1 131922Z 09010KT 13/M07 A3025 RMK A01 T01251070  RH  025%=      5-min Rain = 0
KGU1 131923Z 08010KT 13/M07 A3025 RMK A01 T01261070  RH  025%=      5-min Rain = 0
KGU1 131924Z 10009KT 13/M07 A3025 RMK A01 T01261072  RH  025%=      5-min Rain = 0
KGU1 131925Z 08005KT 12/M07 A3025 RMK A01 T01231071  RH  025%=      5-min Rain = 0
KGU1 131926Z 04006KT 12/M07 A3025 RMK A01 T01231069  RH  026%=      5-min Rain = 0
KGU1 131927Z 06007KT 13/M07 A3025 RMK A01 T01261068  RH  025%=      5-min Rain = 0
KGU1 131928Z 09014KT 13/M07 A3025 RMK A01 T01301071  RH  024%=      5-min Rain = 0
KGU1 131929Z 07014KT 13/M07 A3025 RMK A01 T01281071  RH  025%=      5-min Rain = 0
KGU1 131930Z 07011G17KT 12/M07 A3025 RMK A01 T01241072  RH  025%=      5-min Rain = 0
KGU1 131931Z 08012KT 12/M07 A3025 RMK A01 T01241071  RH  025%=      5-min Rain = 0
KGU1 131932Z 07012KT 12/M07 A3025 RMK A01 T01231073  RH  025%=      5-min Rain = 0
KGU1 131933Z 08010KT 12/M07 A3025 RMK A01 T01201072  RH  026%=      5-min Rain = 0
KGU1 131934Z 07006KT 12/M07 A3025 RMK A01 T01201072  RH  026%=      5-min Rain = 0
KGU1 131935Z 10014KT 12/M07 A3025 RMK A01 T01221070  RH  026%=      5-min Rain = 0
KGU1 131936Z 10013KT 12/M07 A3025 RMK A01 T01231071  RH  025%=      5-min Rain = 0
KGU1 131937Z 10009KT 12/M07 A3025 RMK A01 T01241070  RH  025%=      5-min Rain = 0
KGU1 131938Z 08009KT 13/M07 A3025 RMK A01 T01261069  RH  025%=      5-min Rain = 0
KGU1 131939Z 08007KT 13/M07 A3025 RMK A01 T01291071  RH  024%=      5-min Rain = 0
KGU1 131940Z 08012KT 13/M07 A3025 RMK A01 T01281071  RH  025%=      5-min Rain = 0
KGU1 131941Z 05008KT 13/M07 A3025 RMK A01 T01271070  RH  025%=      5-min Rain = 0
KGU1 131942Z 06009KT 13/M07 A3025 RMK A01 T01281069  RH  025%=      5-min Rain = 0
KGU1 131943Z 10011KT 13/M07 A3025 RMK A01 T01321069  RH  024%=      5-min Rain = 0
KGU1 131944Z 08013KT 13/M07 A3025 RMK A01 T01331071  RH  024%=      5-min Rain = 0
KGU1 131945Z 08011KT 13/M07 A3025 RMK A01 T01311070  RH  024%=      5-min Rain = 0
KGU1 131946Z 08010KT 13/M07 A3025 RMK A01 T01291071  RH  025%=      5-min Rain = 0
KGU1 131947Z 06011KT 13/M07 A3025 RMK A01 T01271070  RH  025%=      5-min Rain = 0
KGU1 131948Z 06007KT 13/M07 A3025 RMK A01 T01271070  RH  025%=      5-min Rain = 0
KGU1 131949Z 05008KT 13/M07 A3025 RMK A01 T01261071  RH  025%=      5-min Rain = 0
KGU1 131950Z 09007KT 13/M07 A3025 RMK A01 T01271069  RH  025%=      5-min Rain = 0
KGU1 131951Z 09010KT 13/M07 A3025 RMK A01 T01301068  RH  025%=      5-min Rain = 0
KGU1 131952Z 11012KT 13/M07 A3024 RMK A01 T01311067  RH  025%=      5-min Rain = 0
KGU1 131953Z 11008KT 13/M07 A3024 RMK A01 T01301066  RH  025%=      5-min Rain = 0
KGU1 131954Z 10009KT 13/M07 A3024 RMK A01 T01301068  RH  025%=      5-min Rain = 0
KGU1 131955Z 08008G13KT 13/M07 A3024 RMK A01 T01291066  RH  025%=      5-min Rain = 0
KGU1 131956Z 05009KT 13/M07 A3024 RMK A01 T01311070  RH  024%=      5-min Rain = 0
KGU1 131957Z 07010KT 13/M07 A3024 RMK A01 T01291070  RH  025%=      5-min Rain = 0
KGU1 131958Z 06008KT 13/M07 A3024 RMK A01 T01291068  RH  025%=      5-min Rain = 0
KGU1 131959Z 08011KT 13/M07 A3024 RMK A01 T01311068  RH  025%=      5-min Rain = 0
KGU1 132000Z 07012KT 13/M07 A3024 RMK A01 T01301069  RH  025%=      5-min Rain = 0
KGU1 132001Z 07011KT 13/M07 A3024 RMK A01 T01261069  RH  025%=      5-min Rain = 0
KGU1 132002Z 07010G17KT 13/M07 A3024 RMK A01 T01271068  RH  025%=      5-min Rain = 0
KGU1 132003Z 08013G18KT 13/M07 A3024 RMK A01 T01291069  RH  025%=      5-min Rain = 0
KGU1 132004Z 08013KT 13/M07 A3024 RMK A01 T01271069  RH  025%=      5-min Rain = 0
KGU1 132005Z 08012KT 13/M07 A3024 RMK A01 T01251069  RH  026%=      5-min Rain = 0
KGU1 132006Z 06010KT 12/M07 A3024 RMK A01 T01241069  RH  026%=      5-min Rain = 0
KGU1 132007Z 06009KT 12/M07 A3024 RMK A01 T01241069  RH  026%=      5-min Rain = 0
KGU1 132008Z 07012KT 13/M07 A3024 RMK A01 T01261069  RH  025%=      5-min Rain = 0
KGU1 132009Z 07009KT 13/M07 A3024 RMK A01 T01251069  RH  025%=      5-min Rain = 0
KGU1 132010Z 04005KT 12/M07 A3024 RMK A01 T01241068  RH  026%=      5-min Rain = 0
KGU1 132011Z 04008KT 12/M07 A3024 RMK A01 T01241068  RH  026%=      5-min Rain = 0
KGU1 132012Z 06009KT 13/M07 A3024 RMK A01 T01251068  RH  026%=      5-min Rain = 0
KGU1 132013Z 08009KT 13/M07 A3023 RMK A01 T01291067  RH  025%=      5-min Rain = 0
KGU1 132014Z 09012KT 13/M07 A3023 RMK A01 T01311067  RH  025%=      5-min Rain = 0
KGU1 132015Z 10010KT 13/M07 A3023 RMK A01 T01301066  RH  025%=      5-min Rain = 0
KGU1 132016Z 07011KT 13/M07 A3023 RMK A01 T01311067  RH  025%=      5-min Rain = 0
KGU1 132017Z 08010KT 13/M07 A3023 RMK A01 T01321067  RH  025%=      5-min Rain = 0
KGU1 132018Z 09012KT 13/M07 A3023 RMK A01 T01341068  RH  024%=      5-min Rain = 0
KGU1 132019Z 08011KT 13/M07 A3023 RMK A01 T01341068  RH  024%=      5-min Rain = 0
KGU1 132020Z 06006KT 13/M07 A3023 RMK A01 T01311070  RH  024%=      5-min Rain = 0
KGU1 132021Z 08006KT 13/M07 A3023 RMK A01 T01271068  RH  025%=      5-min Rain = 0
KGU1 132022Z 05008G13KT 13/M07 A3023 RMK A01 T01271068  RH  025%=      5-min Rain = 0
KGU1 132023Z 06015G22KT 13/M07 A3023 RMK A01 T01281067  RH  025%=      5-min Rain = 0
KGU1 132024Z 10013KT 13/M07 A3022 RMK A01 T01281066  RH  026%=      5-min Rain = 0
KGU1 132025Z 08011KT 13/M07 A3022 RMK A01 T01301065  RH  025%=      5-min Rain = 0
KGU1 132026Z 07008KT 13/M07 A3023 RMK A01 T01311065  RH  025%=      5-min Rain = 0
KGU1 132027Z 09008KT 13/M06 A3022 RMK A01 T01311062  RH  026%=      5-min Rain = 0
KGU1 132028Z 08014KT 13/M07 A3022 RMK A01 T01331065  RH  025%=      5-min Rain = 0
KGU1 132029Z 07012KT 13/M06 A3023 RMK A01 T01321064  RH  025%=      5-min Rain = 0
KGU1 132030Z 08009KT 13/M06 A3022 RMK A01 T01311063  RH  026%=      5-min Rain = 0
KGU1 132031Z 08008KT 13/M07 A3022 RMK A01 T01321065  RH  025%=      5-min Rain = 0
KGU1 132032Z 08013KT 13/M06 A3022 RMK A01 T01321064  RH  025%=      5-min Rain = 0
KGU1 132033Z 09011KT 13/M06 A3022 RMK A01 T01341064  RH  025%=      5-min Rain = 0
KGU1 132034Z 07010KT 14/M07 A3022 RMK A01 T01371065  RH  024%=      5-min Rain = 0
KGU1 132035Z 09010KT 14/M06 A3022 RMK A01 T01361062  RH  025%=      5-min Rain = 0
KGU1 132036Z 08009KT 13/M06 A3022 RMK A01 T01341064  RH  025%=      5-min Rain = 0
KGU1 132037Z 07012KT 13/M06 A3022 RMK A01 T01341064  RH  025%=      5-min Rain = 0
KGU1 132038Z 07012KT 14/M07 A3023 RMK A01 T01351065  RH  025%=      5-min Rain = 0
KGU1 132039Z 07009KT 13/M07 A3023 RMK A01 T01321065  RH  025%=      5-min Rain = 0
KGU1 132040Z 05007KT 13/M06 A3023 RMK A01 T01301063  RH  026%=      5-min Rain = 0
KGU1 132041Z 08009G15KT 13/M06 A3023 RMK A01 T01311063  RH  026%=      5-min Rain = 0
KGU1 132042Z 11013KT 13/M06 A3023 RMK A01 T01331064  RH  025%=      5-min Rain = 0
KGU1 132043Z 10011KT 14/M06 A3023 RMK A01 T01351064  RH  025%=      5-min Rain = 0
KGU1 132044Z 09013KT 14/M06 A3023 RMK A01 T01361063  RH  025%=      5-min Rain = 0
KGU1 132045Z 08012KT 14/M06 A3022 RMK A01 T01351062  RH  025%=      5-min Rain = 0
KGU1 132046Z 07012KT 14/M06 A3023 RMK A01 T01351062  RH  025%=      5-min Rain = 0
KGU1 132047Z 07010KT 13/M06 A3023 RMK A01 T01321061  RH  026%=      5-min Rain = 0
KGU1 132048Z 07013G18KT 13/M06 A3022 RMK A01 T01331061  RH  026%=      5-min Rain = 0
KGU1 132049Z 07012KT 13/M06 A3022 RMK A01 T01321062  RH  026%=      5-min Rain = 0
KGU1 132050Z 06011KT 13/M06 A3022 RMK A01 T01301062  RH  026%=      5-min Rain = 0
KGU1 132051Z 05009KT 13/M06 A3022 RMK A01 T01321063  RH  026%=      5-min Rain = 0
KGU1 132052Z 04009KT 13/M06 A3022 RMK A01 T01321062  RH  026%=      5-min Rain = 0
KGU1 132053Z 09006KT 13/M06 A3022 RMK A01 T01311063  RH  026%=      5-min Rain = 0
KGU1 132054Z 06006KT 13/M06 A3022 RMK A01 T01321061  RH  026%=      5-min Rain = 0
KGU1 132055Z 06007KT 14/M06 A3022 RMK A01 T01361062  RH  025%=      5-min Rain = 0
KGU1 132056Z 09008G14KT 14/M06 A3022 RMK A01 T01411061  RH  024%=      5-min Rain = 0
KGU1 132057Z 10011KT 15/M06 A3022 RMK A01 T01451063  RH  023%=      5-min Rain = 0
KGU1 132058Z 09010KT 14/M06 A3022 RMK A01 T01421062  RH  024%=      5-min Rain = 0
KGU1 132059Z 10007KT 14/M06 A3022 RMK A01 T01401061  RH  025%=      5-min Rain = 0
KGU1 132100Z 09006G12KT 14/M06 A3022 RMK A01 T01391062  RH  025%=      5-min Rain = 0
KGU1 132101Z 08012KT 14/M06 A3022 RMK A01 T01381064  RH  024%=      5-min Rain = 0
KGU1 132102Z 08012KT 14/M06 A3022 RMK A01 T01361063  RH  025%=      5-min Rain = 0
KGU1 132103Z 08015KT 14/M06 A3022 RMK A01 T01361064  RH  025%=      5-min Rain = 0
KGU1 132104Z 08010KT 13/M06 A3022 RMK A01 T01341064  RH  025%=      5-min Rain = 0
KGU1 132105Z 05011KT 13/M06 A3022 RMK A01 T01331063  RH  025%=      5-min Rain = 0
KGU1 132106Z 07011KT 13/M06 A3022 RMK A01 T01321064  RH  025%=      5-min Rain = 0
KGU1 132107Z 04006G11KT 13/M06 A3022 RMK A01 T01301064  RH  026%=      5-min Rain = 0
KGU1 132108Z 04007KT 13/M06 A3022 RMK A01 T01291063  RH  026%=      5-min Rain = 0
KGU1 132109Z 08011KT 13/M06 A3021 RMK A01 T01311063  RH  026%=      5-min Rain = 0
KGU1 132110Z 08014KT 13/M06 A3021 RMK A01 T01321064  RH  025%=      5-min Rain = 0
KGU1 132111Z 07010KT 13/M06 A3021 RMK A01 T01331064  RH  025%=      5-min Rain = 0
KGU1 132112Z 06009KT 13/M06 A3021 RMK A01 T01341064  RH  025%=      5-min Rain = 0
KGU1 132113Z 05009KT 14/M06 A3021 RMK A01 T01361063  RH  025%=      5-min Rain = 0
KGU1 132114Z 08011KT 14/M06 A3021 RMK A01 T01391063  RH  024%=      5-min Rain = 0
KGU1 132115Z 06011G16KT 14/M06 A3021 RMK A01 T01401064  RH  024%=      5-min Rain = 0
KGU1 132116Z 05010KT 14/M06 A3021 RMK A01 T01371064  RH  024%=      5-min Rain = 0
KGU1 132117Z 08012KT 14/M06 A3021 RMK A01 T01351064  RH  025%=      5-min Rain = 0
KGU1 132118Z 09011KT 14/M06 A3021 RMK A01 T01351063  RH  025%=      5-min Rain = 0
KGU1 132119Z 06010KT 14/M06 A3021 RMK A01 T01361063  RH  025%=      5-min Rain = 0
KGU1 132120Z 06009KT 14/M06 A3021 RMK A01 T01351063  RH  025%=      5-min Rain = 0
KGU1 132121Z 06008KT 14/M07 A3021 RMK A01 T01361065  RH  024%=      5-min Rain = 0
KGU1 132122Z 08011KT 14/M06 A3021 RMK A01 T01381064  RH  024%=      5-min Rain = 0
KGU1 132123Z 06011KT 14/M07 A3021 RMK A01 T01381065  RH  024%=      5-min Rain = 0
KGU1 132124Z 09011KT 14/M06 A3021 RMK A01 T01371063  RH  025%=      5-min Rain = 0
KGU1 132125Z 09011KT 14/M06 A3021 RMK A01 T01381062  RH  025%=      5-min Rain = 0
KGU1 132126Z 09012KT 14/M06 A3021 RMK A01 T01351063  RH  025%=      5-min Rain = 0
KGU1 132127Z 09007KT 13/M06 A3022 RMK A01 T01331064  RH  025%=      5-min Rain = 0
KGU1 132128Z 08010KT 13/M06 A3022 RMK A01 T01331063  RH  025%=      5-min Rain = 0
KGU1 132129Z 09011G17KT 13/M06 A3022 RMK A01 T01341062  RH  025%=      5-min Rain = 0
KGU1 132130Z 09009KT 14/M06 A3022 RMK A01 T01371063  RH  025%=      5-min Rain = 0
KGU1 132131Z 09006KT 14/M06 A3022 RMK A01 T01381062  RH  025%=      5-min Rain = 0
KGU1 132132Z 05008KT 14/M06 A3022 RMK A01 T01371064  RH  025%=      5-min Rain = 0
KGU1 132133Z 05007KT 14/M06 A3022 RMK A01 T01361064  RH  025%=      5-min Rain = 0
KGU1 132134Z 06012KT 14/M06 A3022 RMK A01 T01361063  RH  025%=      5-min Rain = 0
KGU1 132135Z 08010KT 14/M06 A3022 RMK A01 T01381063  RH  024%=      5-min Rain = 0
KGU1 132136Z 08010KT 14/M06 A3022 RMK A01 T01401064  RH  024%=      5-min Rain = 0
KGU1 132137Z 07010KT 14/M06 A3022 RMK A01 T01411064  RH  024%=      5-min Rain = 0
KGU1 132138Z 06009KT 14/M06 A3022 RMK A01 T01421064  RH  024%=      5-min Rain = 0
KGU1 132139Z 08009KT 14/M06 A3022 RMK A01 T01421064  RH  024%=      5-min Rain = 0
KGU1 132140Z 08010KT 14/M06 A3022 RMK A01 T01421064  RH  024%=      5-min Rain = 0
KGU1 132141Z 08016KT 14/M07 A3022 RMK A01 T01411066  RH  023%=      5-min Rain = 0
KGU1 132142Z 07011KT 14/M07 A3022 RMK A01 T01361065  RH  024%=      5-min Rain = 0
KGU1 132143Z 07012KT 13/M07 A3022 RMK A01 T01341066  RH  025%=      5-min Rain = 0
KGU1 132144Z 07012KT 13/M07 A3022 RMK A01 T01331066  RH  025%=      5-min Rain = 0
KGU1 132145Z 07008KT 13/M07 A3022 RMK A01 T01301066  RH  025%=      5-min Rain = 0
KGU1 132146Z 09005KT 13/M06 A3022 RMK A01 T01281064  RH  026%=      5-min Rain = 0
KGU1 132147Z 06009KT 13/M06 A3022 RMK A01 T01311064  RH  025%=      5-min Rain = 0
KGU1 132148Z 04009KT 13/M07 A3022 RMK A01 T01331065  RH  025%=      5-min Rain = 0
KGU1 132149Z 07010KT 13/M07 A3022 RMK A01 T01341065  RH  025%=      5-min Rain = 0
KGU1 132150Z 07010KT 14/M07 A3022 RMK A01 T01351065  RH  025%=      5-min Rain = 0
KGU1 132151Z 06009KT 13/M07 A3022 RMK A01 T01341065  RH  025%=      5-min Rain = 0
KGU1 132152Z 08010KT 13/M07 A3022 RMK A01 T01321065  RH  025%=      5-min Rain = 0
KGU1 132153Z 09012KT 13/M07 A3021 RMK A01 T01331065  RH  025%=      5-min Rain = 0
KGU1 132154Z 06011KT 13/M06 A3021 RMK A01 T01321064  RH  025%=      5-min Rain = 0
KGU1 132155Z 04008KT 13/M06 A3022 RMK A01 T01311064  RH  025%=      5-min Rain = 0
KGU1 132156Z 06011KT 13/M06 A3022 RMK A01 T01301064  RH  026%=      5-min Rain = 0
KGU1 132157Z 06008KT 13/M06 A3022 RMK A01 T01321064  RH  025%=      5-min Rain = 0
KGU1 132158Z 06009KT 13/M07 A3022 RMK A01 T01341066  RH  025%=      5-min Rain = 0
KGU1 132159Z 05008KT 13/M07 A3022 RMK A01 T01341066  RH  025%=      5-min Rain = 0
KGU1 132200Z 07010KT 13/M07 A3022 RMK A01 T01331065  RH  025%=      5-min Rain = 0
KGU1 132201Z 05011KT 13/M07 A3022 RMK A01 T01321065  RH  025%=      5-min Rain = 0
KGU1 132202Z 03010KT 13/M07 A3022 RMK A01 T01331065  RH  025%=      5-min Rain = 0
KGU1 132203Z 03008KT 13/M06 A3022 RMK A01 T01331064  RH  025%=      5-min Rain = 0
KGU1 132204Z 03007KT 13/M06 A3022 RMK A01 T01341064  RH  025%=      5-min Rain = 0
KGU1 132205Z 05005KT 14/M07 A3021 RMK A01 T01351065  RH  025%=      5-min Rain = 0
KGU1 132206Z 10009G14KT 14/M06 A3021 RMK A01 T01351063  RH  025%=      5-min Rain = 0
KGU1 132207Z 11013KT 14/M06 A3021 RMK A01 T01351062  RH  025%=      5-min Rain = 0
KGU1 132208Z 11012KT 14/M06 A3021 RMK A01 T01351062  RH  025%=      5-min Rain = 0
KGU1 132209Z 07009G14KT 13/M06 A3021 RMK A01 T01341062  RH  025%=      5-min Rain = 0
KGU1 132210Z 06009KT 13/M06 A3021 RMK A01 T01331062  RH  025%=      5-min Rain = 0
KGU1 132211Z 07012KT 13/M06 A3021 RMK A01 T01341062  RH  025%=      5-min Rain = 0
KGU1 132212Z 06012KT 14/M06 A3021 RMK A01 T01351061  RH  025%=      5-min Rain = 0
KGU1 132213Z 06011KT 14/M06 A3021 RMK A01 T01361062  RH  025%=      5-min Rain = 0
KGU1 132214Z 08012KT 14/M06 A3021 RMK A01 T01351063  RH  025%=      5-min Rain = 0
KGU1 132215Z 08012KT 13/M06 A3021 RMK A01 T01341063  RH  025%=      5-min Rain = 0
KGU1 132216Z 08010KT 13/M06 A3021 RMK A01 T01341062  RH  025%=      5-min Rain = 0
KGU1 132217Z 09010KT 13/M06 A3021 RMK A01 T01331062  RH  026%=      5-min Rain = 0
KGU1 132218Z 07007KT 13/M06 A3022 RMK A01 T01321062  RH  026%=      5-min Rain = 0
KGU1 132219Z 06009KT 13/M06 A3022 RMK A01 T01321062  RH  026%=      5-min Rain = 0
KGU1 132220Z 07007KT 13/M06 A3022 RMK A01 T01311061  RH  026%=      5-min Rain = 0
KGU1 132221Z 09006KT 13/M06 A3022 RMK A01 T01311061  RH  026%=      5-min Rain = 0
KGU1 132222Z 08009KT 13/M06 A3021 RMK A01 T01321061  RH  026%=      5-min Rain = 0
KGU1 132223Z 08011KT 13/M06 A3021 RMK A01 T01331061  RH  026%=      5-min Rain = 0
KGU1 132224Z 07014KT 13/M06 A3022 RMK A01 T01341062  RH  025%=      5-min Rain = 0
KGU1 132225Z 07012KT 13/M06 A3022 RMK A01 T01311061  RH  026%=      5-min Rain = 0
KGU1 132226Z 07008KT 13/M06 A3022 RMK A01 T01311061  RH  026%=      5-min Rain = 0
KGU1 132227Z 07007KT 13/M06 A3021 RMK A01 T01311061  RH  026%=      5-min Rain = 0
KGU1 132228Z 07006KT 13/M06 A3021 RMK A01 T01311061  RH  026%=      5-min Rain = 0
KGU1 132229Z 07010KT 13/M06 A3021 RMK A01 T01311060  RH  026%=      5-min Rain = 0
KGU1 132230Z 06008KT 13/M06 A3021 RMK A01 T01321059  RH  026%=      5-min Rain = 0
KGU1 132231Z 05008KT 13/M06 A3021 RMK A01 T01331061  RH  026%=      5-min Rain = 0
KGU1 132232Z 06007KT 13/M06 A3021 RMK A01 T01321060  RH  026%=      5-min Rain = 0
KGU1 132233Z 08009KT 13/M06 A3021 RMK A01 T01321059  RH  026%=      5-min Rain = 0
KGU1 132234Z 09010KT 13/M06 A3021 RMK A01 T01341058  RH  026%=      5-min Rain = 0
KGU1 132235Z 11012KT 14/M06 A3021 RMK A01 T01351059  RH  026%=      5-min Rain = 0
KGU1 132236Z 12012KT 13/M06 A3021 RMK A01 T01341058  RH  026%=      5-min Rain = 0
KGU1 132237Z 10011KT 13/M06 A3021 RMK A01 T01341057  RH  026%=      5-min Rain = 0
KGU1 132238Z 10009KT 13/M06 A3021 RMK A01 T01341058  RH  026%=      5-min Rain = 0
KGU1 132239Z 07007KT 13/M06 A3021 RMK A01 T01321057  RH  027%=      5-min Rain = 0
KGU1 132240Z 06007KT 13/M06 A3021 RMK A01 T01311057  RH  027%=      5-min Rain = 0
KGU1 132241Z 05004KT 13/M06 A3021 RMK A01 T01311057  RH  027%=      5-min Rain = 0
KGU1 132242Z 07005KT 13/M06 A3021 RMK A01 T01301057  RH  027%=      5-min Rain = 0
KGU1 132243Z 09007KT 13/M06 A3021 RMK A01 T01301056  RH  027%=      5-min Rain = 0
KGU1 132244Z 09011KT 13/M06 A3021 RMK A01 T01311056  RH  027%=      5-min Rain = 0
KGU1 132245Z 10011KT 13/M06 A3021 RMK A01 T01331056  RH  027%=      5-min Rain = 0
KGU1 132246Z 11014KT 13/M06 A3021 RMK A01 T01341058  RH  026%=      5-min Rain = 0
KGU1 132247Z 08013KT 13/M06 A3021 RMK A01 T01341059  RH  026%=      5-min Rain = 0
KGU1 132248Z 07012KT 13/M06 A3021 RMK A01 T01321060  RH  026%=      5-min Rain = 0
KGU1 132249Z 06010KT 13/M06 A3021 RMK A01 T01301060  RH  026%=      5-min Rain = 0
KGU1 132250Z 06006KT 13/M06 A3021 RMK A01 T01291059  RH  027%=      5-min Rain = 0
KGU1 132251Z 06008KT 13/M06 A3021 RMK A01 T01311060  RH  026%=      5-min Rain = 0
KGU1 132252Z 08009KT 13/M06 A3021 RMK A01 T01301059  RH  027%=      5-min Rain = 0
KGU1 132253Z 07009KT 13/M06 A3021 RMK A01 T01301059  RH  027%=      5-min Rain = 0
KGU1 132254Z 08009KT 13/M06 A3021 RMK A01 T01291059  RH  027%=      5-min Rain = 0
KGU1 132255Z 08009KT 13/M06 A3021 RMK A01 T01301058  RH  027%=      5-min Rain = 0
KGU1 132256Z 08012G17KT 13/M06 A3021 RMK A01 T01311059  RH  027%=      5-min Rain = 0
KGU1 132257Z 09011KT 13/M06 A3021 RMK A01 T01311059  RH  027%=      5-min Rain = 0
KGU1 132258Z 09010KT 13/M06 A3021 RMK A01 T01301058  RH  027%=      5-min Rain = 0
KGU1 132259Z 09010KT 13/M06 A3021 RMK A01 T01311059  RH  026%=      5-min Rain = 0
KGU1 132300Z 07011KT 13/M06 A3021 RMK A01 T01321058  RH  026%=      5-min Rain = 0
KGU1 132301Z 07008KT 13/M06 A3021 RMK A01 T01311059  RH  026%=      5-min Rain = 0
KGU1 132302Z 08005KT 13/M06 A3021 RMK A01 T01301058  RH  027%=      5-min Rain = 0
KGU1 132303Z 06005G12KT 13/M06 A3021 RMK A01 T01291058  RH  027%=      5-min Rain = 0
KGU1 132304Z 05010KT 13/M06 A3021 RMK A01 T01311057  RH  027%=      5-min Rain = 0
KGU1 132305Z 06011KT 13/M06 A3021 RMK A01 T01311057  RH  027%=      5-min Rain = 0
KGU1 132306Z 07008KT 13/M06 A3021 RMK A01 T01301057  RH  027%=      5-min Rain = 0
KGU1 132307Z 07007KT 13/M06 A3021 RMK A01 T01311056  RH  027%=      5-min Rain = 0
KGU1 132308Z 08009KT 13/M06 A3021 RMK A01 T01341057  RH  026%=      5-min Rain = 0
KGU1 132309Z 10009KT 14/M06 A3021 RMK A01 T01351055  RH  026%=      5-min Rain = 0
KGU1 132310Z 10009KT 14/M06 A3021 RMK A01 T01361055  RH  026%=      5-min Rain = 0
KGU1 132311Z 11008KT 14/M05 A3021 RMK A01 T01371054  RH  026%=      5-min Rain = 0
KGU1 132312Z 09008KT 14/M05 A3022 RMK A01 T01371054  RH  026%=      5-min Rain = 0
KGU1 132313Z 07009KT 14/M06 A3022 RMK A01 T01351057  RH  026%=      5-min Rain = 0
KGU1 132314Z 07006KT 13/M06 A3022 RMK A01 T01331057  RH  026%=      5-min Rain = 0
KGU1 132315Z 09008KT 13/M06 A3022 RMK A01 T01341057  RH  026%=      5-min Rain = 0
KGU1 132316Z 10007G12KT 13/M06 A3022 RMK A01 T01341055  RH  027%=      5-min Rain = 0
KGU1 132317Z 11010KT 13/M06 A3022 RMK A01 T01341056  RH  026%=      5-min Rain = 0
KGU1 132318Z 11012KT 13/M06 A3021 RMK A01 T01331057  RH  027%=      5-min Rain = 0
KGU1 132319Z 10009KT 13/M06 A3021 RMK A01 T01321056  RH  027%=      5-min Rain = 0
KGU1 132320Z 09013KT 13/M06 A3021 RMK A01 T01311056  RH  027%=      5-min Rain = 0
KGU1 132321Z 09011KT 13/M06 A3021 RMK A01 T01311056  RH  027%=      5-min Rain = 0
KGU1 132322Z 11008KT 13/M06 A3021 RMK A01 T01311056  RH  027%=      5-min Rain = 0
KGU1 132323Z 09009KT 13/M06 A3021 RMK A01 T01311056  RH  027%=      5-min Rain = 0
KGU1 132324Z 08012KT 13/M06 A3021 RMK A01 T01321056  RH  027%=      5-min Rain = 0
KGU1 132325Z 07010KT 13/M06 A3021 RMK A01 T01311057  RH  027%=      5-min Rain = 0
KGU1 132326Z 08007KT 13/M06 A3021 RMK A01 T01291057  RH  027%=      5-min Rain = 0
KGU1 132327Z 07009KT 13/M06 A3021 RMK A01 T01291056  RH  027%=      5-min Rain = 0
KGU1 132328Z 08011KT 13/M06 A3021 RMK A01 T01311056  RH  027%=      5-min Rain = 0
KGU1 132329Z 07008KT 13/M06 A3021 RMK A01 T01321056  RH  027%=      5-min Rain = 0
KGU1 132330Z 07007KT 13/M06 A3022 RMK A01 T01321055  RH  027%=      5-min Rain = 0
KGU1 132331Z 07009KT 13/M06 A3021 RMK A01 T01341056  RH  027%=      5-min Rain = 0
KGU1 132332Z 07009KT 13/M06 A3021 RMK A01 T01341056  RH  027%=      5-min Rain = 0
KGU1 132333Z 06009KT 13/M06 A3021 RMK A01 T01321056  RH  027%=      5-min Rain = 0
KGU1 132334Z 07010KT 13/M06 A3021 RMK A01 T01311055  RH  027%=      5-min Rain = 0
KGU1 132335Z 08012KT 13/M06 A3021 RMK A01 T01301056  RH  027%=      5-min Rain = 0
KGU1 132336Z 07010KT 13/M06 A3022 RMK A01 T01291056  RH  027%=      5-min Rain = 0
KGU1 132337Z 06012KT 13/M06 A3022 RMK A01 T01291056  RH  027%=      5-min Rain = 0
KGU1 132338Z 08007KT 13/M06 A3022 RMK A01 T01281057  RH  027%=      5-min Rain = 0
KGU1 132339Z 06009KT 13/M06 A3022 RMK A01 T01271056  RH  028%=      5-min Rain = 0
KGU1 132340Z 06010KT 13/M06 A3022 RMK A01 T01281057  RH  027%=      5-min Rain = 0
KGU1 132341Z 06009KT 13/M06 A3022 RMK A01 T01271057  RH  028%=      5-min Rain = 0
KGU1 132342Z 07009KT 13/M06 A3022 RMK A01 T01261057  RH  028%=      5-min Rain = 0
KGU1 132343Z 08009KT 13/M06 A3022 RMK A01 T01261056  RH  028%=      5-min Rain = 0
KGU1 132344Z 08007KT 13/M06 A3022 RMK A01 T01261057  RH  028%=      5-min Rain = 0
KGU1 132345Z 07009KT 13/M06 A3022 RMK A01 T01261056  RH  028%=      5-min Rain = 0
KGU1 132346Z 08011KT 13/M06 A3022 RMK A01 T01261056  RH  028%=      5-min Rain = 0
KGU1 132347Z 08008KT 13/M06 A3022 RMK A01 T01261056  RH  028%=      5-min Rain = 0
KGU1 132348Z 08009KT 13/M06 A3022 RMK A01 T01271056  RH  028%=      5-min Rain = 0
KGU1 132349Z 09011KT 13/M06 A3022 RMK A01 T01271057  RH  028%=      5-min Rain = 0
KGU1 132350Z 08009KT 13/M06 A3022 RMK A01 T01261056  RH  028%=      5-min Rain = 0
KGU1 132351Z 08009KT 13/M06 A3022 RMK A01 T01261056  RH  028%=      5-min Rain = 0
KGU1 132352Z 06010KT 13/M06 A3022 RMK A01 T01261056  RH  028%=      5-min Rain = 0
KGU1 132353Z 06009KT 13/M06 A3022 RMK A01 T01251056  RH  028%=      5-min Rain = 0
KGU1 132354Z 07009KT 13/M06 A3022 RMK A01 T01251056  RH  028%=      5-min Rain = 0
KGU1 132355Z 07011KT 13/M06 A3022 RMK A01 T01251057  RH  028%=      5-min Rain = 0
KGU1 132356Z 07009KT 13/M06 A3022 RMK A01 T01251057  RH  028%=      5-min Rain = 0
KGU1 132357Z 07012KT 12/M06 A3022 RMK A01 T01241057  RH  028%=      5-min Rain = 0
KGU1 132358Z 07012KT 12/M06 A3022 RMK A01 T01241057  RH  028%=      5-min Rain = 0
KGU1 132359Z 08010G15KT 12/M06 A3022 RMK A01 T01241056  RH  028%=      5-min Rain = 0
KGU1 140000Z 10013KT 12/M06 A3022 RMK A01 T01241056  RH  028%=      5-min Rain = 0
KGU1 140001Z 10011KT 12/M06 A3022 RMK A01 T01241056  RH  028%=      5-min Rain = 0
KGU1 140002Z 09008KT 12/M06 A3022 RMK A01 T01231055  RH  029%=      5-min Rain = 0
KGU1 140003Z 07008KT 12/M06 A3022 RMK A01 T01231056  RH  029%=      5-min Rain = 0
KGU1 140004Z 07010KT 12/M06 A3022 RMK A01 T01231056  RH  028%=      5-min Rain = 0
KGU1 140005Z 07010KT 12/M06 A3022 RMK A01 T01231057  RH  028%=      5-min Rain = 0
KGU1 140006Z 06009KT 12/M06 A3022 RMK A01 T01231057  RH  028%=      5-min Rain = 0
KGU1 140007Z 06010KT 12/M06 A3022 RMK A01 T01231057  RH  028%=      5-min Rain = 0
KGU1 140008Z 06011KT 12/M06 A3023 RMK A01 T01231057  RH  028%=      5-min Rain = 0
KGU1 140009Z 06012KT 12/M06 A3023 RMK A01 T01221057  RH  028%=      5-min Rain = 0
KGU1 140010Z 06009KT 12/M06 A3023 RMK A01 T01221056  RH  029%=      5-min Rain = 0
KGU1 140011Z 07009KT 12/M06 A3023 RMK A01 T01211056  RH  029%=      5-min Rain = 0
KGU1 140012Z 07011KT 12/M06 A3023 RMK A01 T01201057  RH  029%=      5-min Rain = 0
KGU1 140013Z 07011KT 12/M06 A3023 RMK A01 T01191057  RH  029%=      5-min Rain = 0
KGU1 140014Z 07010KT 12/M06 A3023 RMK A01 T01181058  RH  029%=      5-min Rain = 0
KGU1 140015Z 06009KT 12/M06 A3023 RMK A01 T01181057  RH  029%=      5-min Rain = 0
KGU1 140016Z 06009KT 12/M06 A3023 RMK A01 T01181058  RH  029%=      5-min Rain = 0
KGU1 140017Z 07010KT 12/M06 A3022 RMK A01 T01181058  RH  029%=      5-min Rain = 0
KGU1 140018Z 07011KT 12/M06 A3022 RMK A01 T01181058  RH  029%=      5-min Rain = 0
KGU1 140019Z 06011KT 12/M06 A3022 RMK A01 T01181058  RH  029%=      5-min Rain = 0
KGU1 140020Z 06011KT 12/M06 A3022 RMK A01 T01181058  RH  029%=      5-min Rain = 0
KGU1 140021Z 07011KT 12/M06 A3022 RMK A01 T01171058  RH  029%=      5-min Rain = 0
KGU1 140022Z 05011KT 12/M06 A3022 RMK A01 T01171058  RH  029%=      5-min Rain = 0
KGU1 140023Z 06011KT 12/M06 A3022 RMK A01 T01161058  RH  029%=      5-min Rain = 0
KGU1 140024Z 06010KT 12/M06 A3022 RMK A01 T01161058  RH  029%=      5-min Rain = 0
KGU1 140025Z 06011KT 12/M06 A3022 RMK A01 T01161058  RH  029%=      5-min Rain = 0
KGU1 140026Z 06008KT 12/M06 A3022 RMK A01 T01161058  RH  030%=      5-min Rain = 0
KGU1 140027Z 05009G14KT 12/M06 A3022 RMK A01 T01161057  RH  030%=      5-min Rain = 0
KGU1 140028Z 05010KT 12/M06 A3023 RMK A01 T01161058  RH  030%=      5-min Rain = 0
KGU1 140029Z 07009KT 12/M06 A3023 RMK A01 T01151057  RH  030%=      5-min Rain = 0
KGU1 140030Z 07011KT 12/M06 A3023 RMK A01 T01161057  RH  030%=      5-min Rain = 0
KGU1 140031Z 06011KT 12/M06 A3023 RMK A01 T01151057  RH  030%=      5-min Rain = 0
KGU1 140032Z 06009KT 12/M06 A3023 RMK A01 T01151057  RH  030%=      5-min Rain = 0
KGU1 140033Z 07009KT 12/M06 A3023 RMK A01 T01151057  RH  030%=      5-min Rain = 0
KGU1 140034Z 07010KT 12/M06 A3023 RMK A01 T01151057  RH  030%=      5-min Rain = 0
KGU1 140035Z 07009KT 12/M06 A3023 RMK A01 T01151057  RH  030%=      5-min Rain = 0
KGU1 140036Z 07009KT 12/M06 A3023 RMK A01 T01151057  RH  030%=      5-min Rain = 0
KGU1 140037Z 06008KT 12/M06 A3023 RMK A01 T01151057  RH  030%=      5-min Rain = 0
KGU1 140038Z 07009KT 12/M06 A3023 RMK A01 T01151057  RH  030%=      5-min Rain = 0
KGU1 140039Z 07010KT 11/M06 A3023 RMK A01 T01141057  RH  030%=      5-min Rain = 0
KGU1 140040Z 08012KT 11/M06 A3023 RMK A01 T01141057  RH  030%=      5-min Rain = 0
KGU1 140041Z 08010KT 11/M06 A3023 RMK A01 T01141057  RH  030%=      5-min Rain = 0
KGU1 140042Z 07010KT 11/M06 A3023 RMK A01 T01131057  RH  030%=      5-min Rain = 0
KGU1 140043Z 06009KT 11/M06 A3023 RMK A01 T01131057  RH  030%=      5-min Rain = 0
KGU1 140044Z 06009KT 11/M06 A3023 RMK A01 T01131057  RH  030%=      5-min Rain = 0
KGU1 140045Z 06009KT 11/M06 A3023 RMK A01 T01131057  RH  030%=      5-min Rain = 0
KGU1 140046Z 06009G14KT 11/M06 A3023 RMK A01 T01121057  RH  030%=      5-min Rain = 0
KGU1 140047Z 07009KT 11/M06 A3023 RMK A01 T01121058  RH  030%=      5-min Rain = 0
KGU1 140048Z 07008KT 11/M06 A3023 RMK A01 T01111058  RH  030%=      5-min Rain = 0
KGU1 140049Z 07009KT 11/M06 A3023 RMK A01 T01111058  RH  030%=      5-min Rain = 0
KGU1 140050Z 07009KT 11/M06 A3023 RMK A01 T01111058  RH  031%=      5-min Rain = 0
KGU1 140051Z 07010KT 11/M06 A3023 RMK A01 T01111058  RH  031%=      5-min Rain = 0
KGU1 140052Z 07010KT 11/M06 A3023 RMK A01 T01111058  RH  031%=      5-min Rain = 0
KGU1 140053Z 08011KT 11/M06 A3023 RMK A01 T01111058  RH  031%=      5-min Rain = 0
KGU1 140054Z 07012KT 11/M06 A3023 RMK A01 T01101058  RH  031%=      5-min Rain = 0
KGU1 140055Z 08011KT 11/M06 A3023 RMK A01 T01101058  RH  031%=      5-min Rain = 0
KGU1 140056Z 08010KT 11/M06 A3023 RMK A01 T01101058  RH  031%=      5-min Rain = 0
KGU1 140057Z 08010KT 11/M06 A3023 RMK A01 T01101058  RH  031%=      5-min Rain = 0
KGU1 140058Z 08011KT 11/M06 A3023 RMK A01 T01101058  RH  031%=      5-min Rain = 0
KGU1 140059Z 08011KT 11/M06 A3023 RMK A01 T01091058  RH  031%=      5-min Rain = 0
KGU1 140100Z 08011KT 11/M06 A3023 RMK A01 T01091058  RH  031%=      5-min Rain = 0
KGU1 140101Z 07010KT 11/M06 A3023 RMK A01 T01091058  RH  031%=      5-min Rain = 0
KGU1 140102Z 08010KT 11/M06 A3023 RMK A01 T01091058  RH  031%=      5-min Rain = 0
KGU1 140103Z 07008KT 11/M06 A3023 RMK A01 T01081059  RH  031%=      5-min Rain = 0
KGU1 140104Z 07009KT 11/M06 A3023 RMK A01 T01081058  RH  031%=      5-min Rain = 0
KGU1 140105Z 06011KT 11/M06 A3023 RMK A01 T01071059  RH  031%=      5-min Rain = 0
KGU1 140106Z 06010KT 11/M06 A3023 RMK A01 T01071059  RH  031%=      5-min Rain = 0
KGU1 140107Z 07010KT 11/M06 A3023 RMK A01 T01071059  RH  031%=      5-min Rain = 0
KGU1 140108Z 06009KT 11/M06 A3023 RMK A01 T01071059  RH  031%=      5-min Rain = 0
KGU1 140109Z 07009KT 11/M06 A3023 RMK A01 T01061059  RH  031%=      5-min Rain = 0
KGU1 140110Z 06009KT 11/M06 A3023 RMK A01 T01061059  RH  031%=      5-min Rain = 0
KGU1 140111Z 07010KT 11/M06 A3023 RMK A01 T01061059  RH  031%=      5-min Rain = 0
KGU1 140112Z 06009KT 11/M06 A3023 RMK A01 T01061059  RH  031%=      5-min Rain = 0
KGU1 140113Z 07009KT 11/M06 A3024 RMK A01 T01061059  RH  031%=      5-min Rain = 0
KGU1 140114Z 07008KT 11/M06 A3024 RMK A01 T01061059  RH  031%=      5-min Rain = 0
KGU1 140115Z 06007KT 11/M06 A3024 RMK A01 T01051059  RH  031%=      5-min Rain = 0
KGU1 140116Z 06009KT 11/M06 A3024 RMK A01 T01051059  RH  031%=      5-min Rain = 0
KGU1 140117Z 06008KT 11/M06 A3024 RMK A01 T01051059  RH  031%=      5-min Rain = 0
KGU1 140118Z 07007KT 11/M06 A3024 RMK A01 T01051059  RH  031%=      5-min Rain = 0
KGU1 140119Z 07008KT 10/M06 A3024 RMK A01 T01041059  RH  032%=      5-min Rain = 0
KGU1 140120Z 07007KT 10/M06 A3024 RMK A01 T01041059  RH  032%=      5-min Rain = 0
KGU1 140121Z 07008KT 10/M06 A3024 RMK A01 T01041059  RH  032%=      5-min Rain = 0
KGU1 140122Z 07009KT 10/M06 A3024 RMK A01 T01041059  RH  032%=      5-min Rain = 0
KGU1 140123Z 07009KT 10/M06 A3024 RMK A01 T01041059  RH  032%=      5-min Rain = 0
KGU1 140124Z 08009KT 10/M06 A3024 RMK A01 T01041059  RH  032%=      5-min Rain = 0
KGU1 140125Z 08009KT 10/M06 A3024 RMK A01 T01041059  RH  032%=      5-min Rain = 0
KGU1 140126Z 08009KT 10/M06 A3024 RMK A01 T01041059  RH  032%=      5-min Rain = 0
KGU1 140127Z 07008KT 10/M06 A3024 RMK A01 T01041059  RH  032%=      5-min Rain = 0
KGU1 140128Z 07010KT 10/M06 A3024 RMK A01 T01031059  RH  032%=      5-min Rain = 0
KGU1 140129Z 07008KT 10/M06 A3024 RMK A01 T01031059  RH  032%=      5-min Rain = 0
KGU1 140130Z 07008KT 10/M06 A3024 RMK A01 T01031059  RH  032%=      5-min Rain = 0
KGU1 140131Z 07008KT 10/M06 A3024 RMK A01 T01031060  RH  032%=      5-min Rain = 0
KGU1 140132Z 06009KT 10/M06 A3024 RMK A01 T01021060  RH  032%=      5-min Rain = 0
KGU1 140133Z 07008KT 10/M06 A3024 RMK A01 T01021060  RH  032%=      5-min Rain = 0
KGU1 140134Z 06007KT 10/M06 A3024 RMK A01 T01021060  RH  032%=      5-min Rain = 0
KGU1 140135Z 07006KT 10/M06 A3024 RMK A01 T01011060  RH  032%=      5-min Rain = 0
KGU1 140136Z 06008KT 10/M06 A3024 RMK A01 T01011060  RH  032%=      5-min Rain = 0
KGU1 140137Z 07008KT 10/M06 A3025 RMK A01 T01011060  RH  032%=      5-min Rain = 0
KGU1 140138Z 07007KT 10/M06 A3025 RMK A01 T01011060  RH  032%=      5-min Rain = 0
KGU1 140139Z 07008KT 10/M06 A3025 RMK A01 T01011060  RH  032%=      5-min Rain = 0
KGU1 140140Z 07009KT 10/M06 A3025 RMK A01 T01011060  RH  032%=      5-min Rain = 0
KGU1 140141Z 07008KT 10/M06 A3024 RMK A01 T01011060  RH  032%=      5-min Rain = 0
KGU1 140142Z 07007KT 10/M06 A3024 RMK A01 T01011060  RH  032%=      5-min Rain = 0
KGU1 140143Z 06006KT 10/M06 A3025 RMK A01 T01011060  RH  032%=      5-min Rain = 0
KGU1 140144Z 06008KT 10/M06 A3025 RMK A01 T01001060  RH  032%=      5-min Rain = 0
KGU1 140145Z 06008KT 10/M06 A3025 RMK A01 T01001060  RH  032%=      5-min Rain = 0
KGU1 140146Z 06008KT 10/M06 A3025 RMK A01 T01001060  RH  032%=      5-min Rain = 0
KGU1 140147Z 06008KT 10/M06 A3025 RMK A01 T00991061  RH  032%=      5-min Rain = 0
KGU1 140148Z 06007KT 10/M06 A3025 RMK A01 T00991060  RH  032%=      5-min Rain = 0
KGU1 140149Z 07007KT 10/M06 A3025 RMK A01 T00991061  RH  032%=      5-min Rain = 0
KGU1 140150Z 06007KT 10/M06 A3025 RMK A01 T00991061  RH  032%=      5-min Rain = 0
KGU1 140151Z 06008KT 10/M06 A3025 RMK A01 T00991061  RH  032%=      5-min Rain = 0
KGU1 140152Z 06008KT 10/M06 A3025 RMK A01 T00981061  RH  032%=      5-min Rain = 0
KGU1 140153Z 06007KT 10/M06 A3025 RMK A01 T00991061  RH  032%=      5-min Rain = 0
KGU1 140154Z 06006KT 10/M06 A3025 RMK A01 T00991061  RH  032%=      5-min Rain = 0
KGU1 140155Z 06007KT 10/M06 A3025 RMK A01 T00981061  RH  032%=      5-min Rain = 0
KGU1 140156Z 07007KT 10/M06 A3025 RMK A01 T00981061  RH  032%=      5-min Rain = 0
KGU1 140157Z 06008KT 10/M06 A3025 RMK A01 T00981061  RH  032%=      5-min Rain = 0
KGU1 140158Z 05007KT 10/M06 A3025 RMK A01 T00981061  RH  032%=      5-min Rain = 0
KGU1 140159Z 05007KT 10/M06 A3025 RMK A01 T00971061  RH  033%=      5-min Rain = 0
KGU1 140200Z 05006KT 10/M06 A3025 RMK A01 T00971061  RH  033%=      5-min Rain = 0
KGU1 140201Z 06006KT 10/M06 A3025 RMK A01 T00971061  RH  033%=      5-min Rain = 0
KGU1 140202Z 05009KT 10/M06 A3025 RMK A01 T00971061  RH  033%=      5-min Rain = 0
KGU1 140203Z 06007KT 10/M06 A3025 RMK A01 T00971061  RH  033%=      5-min Rain = 0
KGU1 140204Z 05005KT 10/M06 A3025 RMK A01 T00971061  RH  033%=      5-min Rain = 0
KGU1 140205Z 05005KT 10/M06 A3025 RMK A01 T00971061  RH  033%=      5-min Rain = 0
KGU1 140206Z 05006KT 10/M06 A3025 RMK A01 T00961061  RH  033%=      5-min Rain = 0
KGU1 140207Z 05008KT 10/M06 A3025 RMK A01 T00961061  RH  033%=      5-min Rain = 0
KGU1 140208Z 05007KT 10/M06 A3025 RMK A01 T00961061  RH  033%=      5-min Rain = 0
KGU1 140209Z 05007KT 10/M06 A3025 RMK A01 T00961061  RH  033%=      5-min Rain = 0
KGU1 140210Z 05007KT 10/M06 A3025 RMK A01 T00951061  RH  033%=      5-min Rain = 0
KGU1 140211Z 05008KT 10/M06 A3025 RMK A01 T00951061  RH  033%=      5-min Rain = 0
KGU1 140212Z 05008KT 10/M06 A3025 RMK A01 T00951061  RH  033%=      5-min Rain = 0
KGU1 140213Z 05007KT 10/M06 A3025 RMK A01 T00951061  RH  033%=      5-min Rain = 0
KGU1 140214Z 05006KT 10/M06 A3025 RMK A01 T00951061  RH  033%=      5-min Rain = 0
KGU1 140215Z 05006KT 09/M06 A3025 RMK A01 T00941061  RH  033%=      5-min Rain = 0
KGU1 140216Z 05007KT 09/M06 A3025 RMK A01 T00941061  RH  033%=      5-min Rain = 0
KGU1 140217Z 05007KT 09/M06 A3026 RMK A01 T00941061  RH  033%=      5-min Rain = 0
KGU1 140218Z 04007KT 09/M06 A3026 RMK A01 T00941061  RH  033%=      5-min Rain = 0
KGU1 140219Z 04007KT 09/M06 A3026 RMK A01 T00931061  RH  033%=      5-min Rain = 0
KGU1 140220Z 04006KT 09/M06 A3026 RMK A01 T00931061  RH  033%=      5-min Rain = 0
KGU1 140221Z 04006KT 09/M06 A3026 RMK A01 T00931061  RH  033%=      5-min Rain = 0
KGU1 140222Z 04007KT 09/M06 A3026 RMK A01 T00931061  RH  033%=      5-min Rain = 0
KGU1 140223Z 04008KT 09/M06 A3026 RMK A01 T00931061  RH  033%=      5-min Rain = 0
KGU1 140224Z 03007KT 09/M06 A3026 RMK A01 T00931061  RH  033%=      5-min Rain = 0
KGU1 140225Z 04007KT 09/M06 A3026 RMK A01 T00931061  RH  033%=      5-min Rain = 0
KGU1 140226Z 03008KT 09/M06 A3026 RMK A01 T00931061  RH  033%=      5-min Rain = 0
KGU1 140227Z 03008KT 09/M06 A3026 RMK A01 T00931061  RH  033%=      5-min Rain = 0
KGU1 140228Z 03007KT 09/M06 A3026 RMK A01 T00931061  RH  033%=      5-min Rain = 0
KGU1 140229Z 03008KT 09/M06 A3026 RMK A01 T00931061  RH  033%=      5-min Rain = 0
KGU1 140230Z 04008KT 09/M06 A3026 RMK A01 T00931061  RH  034%=      5-min Rain = 0
KGU1 140231Z 04007KT 09/M06 A3026 RMK A01 T00931061  RH  034%=      5-min Rain = 0
KGU1 140232Z 04007KT 09/M06 A3026 RMK A01 T00931061  RH  034%=      5-min Rain = 0
KGU1 140233Z 04008KT 09/M06 A3026 RMK A01 T00931061  RH  034%=      5-min Rain = 0
KGU1 140234Z 04007KT 09/M06 A3026 RMK A01 T00931061  RH  034%=      5-min Rain = 0
KGU1 140235Z 04007KT 09/M06 A3026 RMK A01 T00921061  RH  034%=      5-min Rain = 0
KGU1 140236Z 04006KT 09/M06 A3026 RMK A01 T00921061  RH  034%=      5-min Rain = 0
KGU1 140237Z 04007KT 09/M06 A3027 RMK A01 T00921061  RH  034%=      5-min Rain = 0
KGU1 140238Z 03008KT 09/M06 A3027 RMK A01 T00921061  RH  034%=      5-min Rain = 0
KGU1 140239Z 03008KT 09/M06 A3027 RMK A01 T00921061  RH  034%=      5-min Rain = 0
KGU1 140240Z 03006KT 09/M06 A3027 RMK A01 T00921061  RH  034%=      5-min Rain = 0
KGU1 140241Z 03008KT 09/M06 A3027 RMK A01 T00921061  RH  034%=      5-min Rain = 0
KGU1 140242Z 04008KT 09/M06 A3027 RMK A01 T00921061  RH  034%=      5-min Rain = 0
KGU1 140243Z 03007KT 09/M06 A3027 RMK A01 T00931061  RH  034%=      5-min Rain = 0
KGU1 140244Z 03005KT 09/M06 A3027 RMK A01 T00931061  RH  034%=      5-min Rain = 0
KGU1 140245Z 03006G11KT 09/M06 A3027 RMK A01 T00931061  RH  034%=      5-min Rain = 0
KGU1 140246Z 03007KT 09/M06 A3028 RMK A01 T00931061  RH  034%=      5-min Rain = 0
KGU1 140247Z 03006KT 09/M06 A3028 RMK A01 T00931061  RH  034%=      5-min Rain = 0
KGU1 140248Z 03007KT 09/M06 A3028 RMK A01 T00931061  RH  034%=      5-min Rain = 0
KGU1 140249Z 04006KT 09/M06 A3028 RMK A01 T00921061  RH  034%=      5-min Rain = 0
KGU1 140250Z 04007KT 09/M06 A3028 RMK A01 T00931060  RH  034%=      5-min Rain = 0
KGU1 140251Z 03008KT 09/M06 A3028 RMK A01 T00921061  RH  034%=      5-min Rain = 0
KGU1 140252Z 04006KT 09/M06 A3028 RMK A01 T00921061  RH  034%=      5-min Rain = 0
KGU1 140253Z 03006KT 09/M06 A3028 RMK A01 T00921061  RH  034%=      5-min Rain = 0
KGU1 140254Z 04007KT 09/M06 A3028 RMK A01 T00921060  RH  034%=      5-min Rain = 0
KGU1 140255Z 04007KT 09/M06 A3028 RMK A01 T00921061  RH  034%=      5-min Rain = 0
KGU1 140256Z 04007KT 09/M06 A3028 RMK A01 T00921060  RH  034%=      5-min Rain = 0
KGU1 140257Z 04008KT 09/M06 A3028 RMK A01 T00921060  RH  034%=      5-min Rain = 0
KGU1 140258Z 04007KT 09/M06 A3028 RMK A01 T00921060  RH  034%=      5-min Rain = 0
KGU1 140259Z 04009KT 09/M06 A3028 RMK A01 T00921060  RH  034%=      5-min Rain = 0
KGU1 140300Z 04009KT 09/M06 A3028 RMK A01 T00921060  RH  034%=      5-min Rain = 0
KGU1 140301Z 04008KT 09/M06 A3028 RMK A01 T00931060  RH  034%=      5-min Rain = 0
KGU1 140302Z 03008KT 09/M06 A3028 RMK A01 T00921060  RH  034%=      5-min Rain = 0
KGU1 140303Z 04007KT 09/M06 A3028 RMK A01 T00921060  RH  034%=      5-min Rain = 0
KGU1 140304Z 04008KT 09/M06 A3028 RMK A01 T00921060  RH  034%=      5-min Rain = 0
KGU1 140305Z 04006KT 09/M06 A3028 RMK A01 T00921060  RH  034%=      5-min Rain = 0
KGU1 140306Z 04009KT 09/M06 A3028 RMK A01 T00921060  RH  034%=      5-min Rain = 0
KGU1 140307Z 04008KT 09/M06 A3028 RMK A01 T00921060  RH  034%=      5-min Rain = 0
KGU1 140308Z 04009KT 09/M06 A3028 RMK A01 T00921060  RH  034%=      5-min Rain = 0
KGU1 140309Z 05008KT 09/M06 A3028 RMK A01 T00921060  RH  034%=      5-min Rain = 0
KGU1 140310Z 04008KT 09/M06 A3027 RMK A01 T00921060  RH  034%=      5-min Rain = 0
KGU1 140311Z 04008KT 09/M06 A3027 RMK A01 T00921060  RH  034%=      5-min Rain = 0
KGU1 140312Z 04008KT 09/M06 A3027 RMK A01 T00911060  RH  034%=      5-min Rain = 0
KGU1 140313Z 04009KT 09/M06 A3027 RMK A01 T00911059  RH  034%=      5-min Rain = 0
KGU1 140314Z 04009KT 09/M06 A3028 RMK A01 T00911059  RH  034%=      5-min Rain = 0
KGU1 140315Z 04009KT 09/M06 A3028 RMK A01 T00921059  RH  034%=      5-min Rain = 0
KGU1 140316Z 04009KT 09/M06 A3028 RMK A01 T00921059  RH  034%=      5-min Rain = 0
KGU1 140317Z 04009KT 09/M06 A3028 RMK A01 T00921059  RH  034%=      5-min Rain = 0
KGU1 140318Z 03009KT 09/M06 A3028 RMK A01 T00921059  RH  034%=      5-min Rain = 0
KGU1 140319Z 04008KT 09/M06 A3028 RMK A01 T00921059  RH  034%=      5-min Rain = 0
KGU1 140320Z 04009G14KT 09/M06 A3028 RMK A01 T00911059  RH  034%=      5-min Rain = 0
KGU1 140321Z 03011KT 09/M06 A3028 RMK A01 T00911059  RH  034%=      5-min Rain = 0
KGU1 140322Z 04008KT 09/M06 A3028 RMK A01 T00921059  RH  034%=      5-min Rain = 0
KGU1 140323Z 04010KT 09/M06 A3028 RMK A01 T00921059  RH  034%=      5-min Rain = 0
KGU1 140324Z 05010KT 09/M06 A3028 RMK A01 T00921059  RH  034%=      5-min Rain = 0
KGU1 140325Z 05010KT 09/M06 A3028 RMK A01 T00921059  RH  034%=      5-min Rain = 0
KGU1 140326Z 04010KT 09/M06 A3028 RMK A01 T00921058  RH  035%=      5-min Rain = 0
KGU1 140327Z 04009KT 09/M06 A3028 RMK A01 T00921058  RH  035%=      5-min Rain = 0
KGU1 140328Z 03011KT 09/M06 A3028 RMK A01 T00921058  RH  035%=      5-min Rain = 0
KGU1 140329Z 03009KT 09/M06 A3028 RMK A01 T00921058  RH  035%=      5-min Rain = 0
KGU1 140330Z 04008KT 09/M06 A3028 RMK A01 T00911058  RH  035%=      5-min Rain = 0
KGU1 140331Z 04011KT 09/M06 A3028 RMK A01 T00911058  RH  035%=      5-min Rain = 0
KGU1 140332Z 04008KT 09/M06 A3028 RMK A01 T00911058  RH  035%=      5-min Rain = 0
KGU1 140333Z 05009KT 09/M06 A3028 RMK A01 T00911058  RH  035%=      5-min Rain = 0
KGU1 140334Z 04011KT 09/M06 A3028 RMK A01 T00911058  RH  035%=      5-min Rain = 0
KGU1 140335Z 05007KT 09/M06 A3028 RMK A01 T00911058  RH  035%=      5-min Rain = 0
KGU1 140336Z 06011G16KT 09/M06 A3028 RMK A01 T00911057  RH  035%=      5-min Rain = 0
KGU1 140337Z 05011KT 09/M06 A3028 RMK A01 T00911057  RH  035%=      5-min Rain = 0
KGU1 140338Z 04007KT 09/M06 A3028 RMK A01 T00901058  RH  035%=      5-min Rain = 0
KGU1 140339Z 04009KT 09/M06 A3028 RMK A01 T00901057  RH  035%=      5-min Rain = 0
KGU1 140340Z 05008KT 09/M06 A3028 RMK A01 T00901058  RH  035%=      5-min Rain = 0
KGU1 140341Z 04008KT 09/M06 A3028 RMK A01 T00891058  RH  035%=      5-min Rain = 0
KGU1 140342Z 04007KT 09/M06 A3028 RMK A01 T00881058  RH  035%=      5-min Rain = 0
KGU1 140343Z 04009KT 09/M06 A3028 RMK A01 T00881057  RH  036%=      5-min Rain = 0
KGU1 140344Z 05008KT 09/M06 A3028 RMK A01 T00881057  RH  036%=      5-min Rain = 0
KGU1 140345Z 05009KT 09/M06 A3028 RMK A01 T00881057  RH  036%=      5-min Rain = 0
KGU1 140346Z 05010KT 09/M06 A3028 RMK A01 T00881056  RH  036%=      5-min Rain = 0
KGU1 140347Z 05009KT 09/M06 A3028 RMK A01 T00881056  RH  036%=      5-min Rain = 0
KGU1 140348Z 04008KT 09/M06 A3028 RMK A01 T00881056  RH  036%=      5-min Rain = 0
KGU1 140349Z 05008KT 09/M06 A3028 RMK A01 T00871056  RH  036%=      5-min Rain = 0
KGU1 140350Z 03008KT 09/M06 A3028 RMK A01 T00871056  RH  036%=      5-min Rain = 0
KGU1 140351Z 03009KT 09/M06 A3028 RMK A01 T00871056  RH  036%=      5-min Rain = 0
KGU1 140352Z 04009KT 09/M06 A3028 RMK A01 T00871056  RH  036%=      5-min Rain = 0
KGU1 140353Z 04007KT 09/M06 A3028 RMK A01 T00861056  RH  036%=      5-min Rain = 0
KGU1 140354Z 03009KT 09/M06 A3028 RMK A01 T00861056  RH  037%=      5-min Rain = 0
KGU1 140355Z 04008KT 09/M06 A3028 RMK A01 T00861056  RH  037%=      5-min Rain = 0
KGU1 140356Z 04009KT 09/M06 A3028 RMK A01 T00861056  RH  037%=      5-min Rain = 0
KGU1 140357Z 04010KT 09/M06 A3029 RMK A01 T00861055  RH  037%=      5-min Rain = 0
KGU1 140358Z 03009KT 09/M06 A3029 RMK A01 T00861055  RH  037%=      5-min Rain = 0
KGU1 140359Z 02008KT 09/M06 A3029 RMK A01 T00861055  RH  037%=      5-min Rain = 0
KGU1 140400Z 04009KT 09/M06 A3029 RMK A01 T00861055  RH  037%=      5-min Rain = 0
KGU1 140401Z 04007KT 09/M06 A3029 RMK A01 T00861055  RH  037%=      5-min Rain = 0
KGU1 140402Z 05008KT 09/M06 A3029 RMK A01 T00851055  RH  037%=      5-min Rain = 0
KGU1 140403Z 04008KT 09/M05 A3029 RMK A01 T00851054  RH  037%=      5-min Rain = 0
KGU1 140404Z 05008KT 09/M06 A3029 RMK A01 T00851055  RH  037%=      5-min Rain = 0
KGU1 140405Z 04008KT 09/M05 A3029 RMK A01 T00851054  RH  037%=      5-min Rain = 0
KGU1 140406Z 04007KT 08/M05 A3029 RMK A01 T00841054  RH  037%=      5-min Rain = 0
KGU1 140407Z 05006KT 08/M06 A3029 RMK A01 T00841055  RH  037%=      5-min Rain = 0
KGU1 140408Z 05008KT 08/M05 A3029 RMK A01 T00841054  RH  038%=      5-min Rain = 0
KGU1 140409Z 05009KT 08/M05 A3029 RMK A01 T00841054  RH  038%=      5-min Rain = 0
KGU1 140410Z 04009KT 08/M05 A3029 RMK A01 T00841054  RH  038%=      5-min Rain = 0
KGU1 140411Z 04007KT 09/M05 A3029 RMK A01 T00851054  RH  037%=      5-min Rain = 0
KGU1 140412Z 03007KT 09/M05 A3029 RMK A01 T00851054  RH  038%=      5-min Rain = 0
KGU1 140413Z 03009KT 09/M05 A3029 RMK A01 T00851053  RH  038%=      5-min Rain = 0
KGU1 140414Z 05009KT 09/M05 A3029 RMK A01 T00851053  RH  038%=      5-min Rain = 0
KGU1 140415Z 04008KT 08/M05 A3029 RMK A01 T00841053  RH  038%=      5-min Rain = 0
KGU1 140416Z 03009KT 09/M05 A3029 RMK A01 T00851053  RH  038%=      5-min Rain = 0
KGU1 140417Z 03008KT 09/M05 A3029 RMK A01 T00851053  RH  038%=      5-min Rain = 0
KGU1 140418Z 03006KT 08/M05 A3029 RMK A01 T00841054  RH  038%=      5-min Rain = 0
KGU1 140419Z 03008KT 08/M05 A3029 RMK A01 T00841053  RH  038%=      5-min Rain = 0
KGU1 140420Z 03008KT 09/M05 A3029 RMK A01 T00851053  RH  038%=      5-min Rain = 0
KGU1 140421Z 03008KT 09/M05 A3029 RMK A01 T00851053  RH  038%=      5-min Rain = 0
KGU1 140422Z 04007KT 09/M05 A3029 RMK A01 T00851053  RH  038%=      5-min Rain = 0
KGU1 140423Z 03007KT 09/M05 A3029 RMK A01 T00851053  RH  038%=      5-min Rain = 0
KGU1 140424Z 04009KT 09/M05 A3029 RMK A01 T00851053  RH  038%=      5-min Rain = 0
KGU1 140425Z 03008KT 09/M05 A3029 RMK A01 T00851053  RH  038%=      5-min Rain = 0
KGU1 140426Z 02008KT 09/M05 A3029 RMK A01 T00851053  RH  038%=      5-min Rain = 0
KGU1 140427Z 04009KT 09/M05 A3029 RMK A01 T00851052  RH  038%=      5-min Rain = 0
KGU1 140428Z 03009KT 09/M05 A3029 RMK A01 T00851052  RH  038%=      5-min Rain = 0
KGU1 140429Z 03010KT 09/M05 A3029 RMK A01 T00851052  RH  038%=      5-min Rain = 0
KGU1 140430Z 04010KT 09/M05 A3029 RMK A01 T00851052  RH  038%=      5-min Rain = 0
KGU1 140431Z 03009KT 09/M05 A3029 RMK A01 T00851052  RH  038%=      5-min Rain = 0
KGU1 140432Z 04008KT 08/M05 A3029 RMK A01 T00841052  RH  038%=      5-min Rain = 0
KGU1 140433Z 03008KT 08/M05 A3029 RMK A01 T00841052  RH  038%=      5-min Rain = 0
KGU1 140434Z 04008KT 08/M05 A3029 RMK A01 T00831052  RH  038%=      5-min Rain = 0
KGU1 140435Z 04010KT 08/M05 A3029 RMK A01 T00831052  RH  039%=      5-min Rain = 0
KGU1 140436Z 04007KT 08/M05 A3029 RMK A01 T00831052  RH  038%=      5-min Rain = 0
KGU1 140437Z 04006KT 08/M05 A3029 RMK A01 T00831052  RH  039%=      5-min Rain = 0
KGU1 140438Z 06007KT 08/M05 A3029 RMK A01 T00821052  RH  039%=      5-min Rain = 0
KGU1 140439Z 06006KT 08/M05 A3029 RMK A01 T00811052  RH  039%=      5-min Rain = 0
KGU1 140440Z 05006KT 08/M05 A3029 RMK A01 T00811052  RH  039%=      5-min Rain = 0
KGU1 140441Z 05006KT 08/M05 A3029 RMK A01 T00811052  RH  039%=      5-min Rain = 0
KGU1 140442Z 04008KT 08/M05 A303 RMK A01 T00801051  RH  039%=      5-min Rain = 0
KGU1 140443Z 04007KT 08/M05 A303 RMK A01 T00811051  RH  039%=      5-min Rain = 0
KGU1 140444Z 02009KT 08/M05 A303 RMK A01 T00811051  RH  039%=      5-min Rain = 0
KGU1 140445Z 04011KT 08/M05 A303 RMK A01 T00811051  RH  039%=      5-min Rain = 0
KGU1 140446Z 04009KT 08/M05 A303 RMK A01 T00821051  RH  039%=      5-min Rain = 0
KGU1 140447Z 04008KT 08/M05 A303 RMK A01 T00831052  RH  039%=      5-min Rain = 0
KGU1 140448Z 04009KT 08/M05 A303 RMK A01 T00831051  RH  039%=      5-min Rain = 0
KGU1 140449Z 04009KT 08/M05 A303 RMK A01 T00821051  RH  039%=      5-min Rain = 0
KGU1 140450Z 04009KT 08/M05 A303 RMK A01 T00811051  RH  039%=      5-min Rain = 0
KGU1 140451Z 02010KT 08/M05 A3029 RMK A01 T00811051  RH  039%=      5-min Rain = 0
KGU1 140452Z 03010KT 08/M05 A3029 RMK A01 T00821051  RH  039%=      5-min Rain = 0
KGU1 140453Z 03008KT 08/M05 A3029 RMK A01 T00821051  RH  039%=      5-min Rain = 0
KGU1 140454Z 04009KT 08/M05 A3029 RMK A01 T00811051  RH  039%=      5-min Rain = 0
KGU1 140455Z 04009KT 08/M05 A3029 RMK A01 T00811051  RH  039%=      5-min Rain = 0
KGU1 140456Z 03009KT 08/M05 A3029 RMK A01 T00801051  RH  039%=      5-min Rain = 0
KGU1 140457Z 04009KT 08/M05 A3029 RMK A01 T00801051  RH  040%=      5-min Rain = 0
KGU1 140458Z 04008KT 08/M05 A3029 RMK A01 T00791051  RH  040%=      5-min Rain = 0
KGU1 140459Z 04009KT 08/M05 A3029 RMK A01 T00791051  RH  040%=      5-min Rain = 0
KGU1 140500Z 03010KT 08/M05 A3029 RMK A01 T00791051  RH  040%=      5-min Rain = 0

Page generated in 0.0492 seconds.